<?xml version="1.0" encoding="UTF-8" standalone="no" ?>
<gpx xmlns="http://www.topografix.com/GPX/1/1" xmlns:xsi="http://www.w3.org/2001/XMLSchema-instance" xsi:schemaLocation="http://www.topografix.com/GPX/1/1 http://www.topografix.com/GPX/1/1/gpx.xsd" version="1.1" creator="VisuGPX - https://www.visugpx.com">
  <metadata>
    <name>Taulignan - Circuit Officiel N° 12 : Entre bois et ravins</name>
  </metadata>
  <trk>
    <name><![CDATA[Taulignan - Circuit Officiel N° 12 : Entre bois et ravins - 35959 - UtagawaVTT.com]]></name>
    <extensions>
      <line xmlns="http://www.topografix.com/GPX/gpx_style/0/2">
        <color>0000FF</color>
        <width>4</width>
      </line>
    </extensions>
    <trkseg>
      <trkpt lat="44.44376" lon="4.97935">
        <ele>274.14</ele>
        <time>2022-01-29T09:36:29Z</time>
      </trkpt>
      <trkpt lat="44.44357" lon="4.97945">
        <ele>274.119</ele>
        <time>2022-01-29T09:36:34Z</time>
      </trkpt>
      <trkpt lat="44.44343" lon="4.97947">
        <ele>273.307</ele>
        <time>2022-01-29T09:36:38Z</time>
      </trkpt>
      <trkpt lat="44.44332" lon="4.97944">
        <ele>271.831</ele>
        <time>2022-01-29T09:36:42Z</time>
      </trkpt>
      <trkpt lat="44.44312" lon="4.97928">
        <ele>269.23</ele>
        <time>2022-01-29T09:36:53Z</time>
      </trkpt>
      <trkpt lat="44.44303" lon="4.97926">
        <ele>268.614</ele>
        <time>2022-01-29T09:36:57Z</time>
      </trkpt>
      <trkpt lat="44.4429" lon="4.97931">
        <ele>268.04</ele>
        <time>2022-01-29T09:37:01Z</time>
      </trkpt>
      <trkpt lat="44.44284" lon="4.9794">
        <ele>267.975</ele>
        <time>2022-01-29T09:37:05Z</time>
      </trkpt>
      <trkpt lat="44.44272" lon="4.97966">
        <ele>268.593</ele>
        <time>2022-01-29T09:37:15Z</time>
      </trkpt>
      <trkpt lat="44.44266" lon="4.9797">
        <ele>268.363</ele>
        <time>2022-01-29T09:37:31Z</time>
      </trkpt>
      <trkpt lat="44.44261" lon="4.9797">
        <ele>268.083</ele>
        <time>2022-01-29T09:38:10Z</time>
      </trkpt>
      <trkpt lat="44.44243" lon="4.98015">
        <ele>268.516</ele>
        <time>2022-01-29T09:38:24Z</time>
      </trkpt>
      <trkpt lat="44.44227" lon="4.98032">
        <ele>267.43</ele>
        <time>2022-01-29T09:38:30Z</time>
      </trkpt>
      <trkpt lat="44.44214" lon="4.98052">
        <ele>267.17</ele>
        <time>2022-01-29T09:38:35Z</time>
      </trkpt>
      <trkpt lat="44.442" lon="4.98062">
        <ele>267.93</ele>
        <time>2022-01-29T09:38:39Z</time>
      </trkpt>
      <trkpt lat="44.4419" lon="4.98064">
        <ele>268.695</ele>
        <time>2022-01-29T09:38:42Z</time>
      </trkpt>
      <trkpt lat="44.44175" lon="4.98083">
        <ele>271.873</ele>
        <time>2022-01-29T09:39:19Z</time>
      </trkpt>
      <trkpt lat="44.44153" lon="4.98099">
        <ele>273.675</ele>
        <time>2022-01-29T09:39:29Z</time>
      </trkpt>
      <trkpt lat="44.44136" lon="4.98118">
        <ele>274.26</ele>
        <time>2022-01-29T09:39:37Z</time>
      </trkpt>
      <trkpt lat="44.44109" lon="4.98142">
        <ele>275.771</ele>
        <time>2022-01-29T09:39:49Z</time>
      </trkpt>
      <trkpt lat="44.44097" lon="4.98143">
        <ele>276.259</ele>
        <time>2022-01-29T09:39:53Z</time>
      </trkpt>
      <trkpt lat="44.44072" lon="4.98137">
        <ele>277.732</ele>
        <time>2022-01-29T09:40:02Z</time>
      </trkpt>
      <trkpt lat="44.44051" lon="4.98137">
        <ele>279.842</ele>
        <time>2022-01-29T09:40:10Z</time>
      </trkpt>
      <trkpt lat="44.44" lon="4.98153">
        <ele>283.891</ele>
        <time>2022-01-29T09:40:28Z</time>
      </trkpt>
      <trkpt lat="44.43813" lon="4.98165">
        <ele>283.839</ele>
        <time>2022-01-29T09:41:15Z</time>
      </trkpt>
      <trkpt lat="44.43794" lon="4.9817">
        <ele>283.605</ele>
        <time>2022-01-29T09:41:19Z</time>
      </trkpt>
      <trkpt lat="44.43779" lon="4.9818">
        <ele>283.434</ele>
        <time>2022-01-29T09:41:23Z</time>
      </trkpt>
      <trkpt lat="44.4376" lon="4.98197">
        <ele>283.476</ele>
        <time>2022-01-29T09:41:29Z</time>
      </trkpt>
      <trkpt lat="44.43666" lon="4.98299">
        <ele>285.084</ele>
        <time>2022-01-29T09:42:00Z</time>
      </trkpt>
      <trkpt lat="44.43602" lon="4.98383">
        <ele>280.32</ele>
        <time>2022-01-29T09:42:18Z</time>
      </trkpt>
      <trkpt lat="44.43582" lon="4.98403">
        <ele>278.895</ele>
        <time>2022-01-29T09:42:22Z</time>
      </trkpt>
      <trkpt lat="44.43567" lon="4.98409">
        <ele>279.067</ele>
        <time>2022-01-29T09:42:26Z</time>
      </trkpt>
      <trkpt lat="44.43536" lon="4.98411">
        <ele>279.342</ele>
        <time>2022-01-29T09:42:33Z</time>
      </trkpt>
      <trkpt lat="44.43503" lon="4.9842">
        <ele>278.59</ele>
        <time>2022-01-29T09:42:44Z</time>
      </trkpt>
      <trkpt lat="44.43415" lon="4.98479">
        <ele>275.197</ele>
        <time>2022-01-29T09:43:04Z</time>
      </trkpt>
      <trkpt lat="44.43381" lon="4.98495">
        <ele>273.408</ele>
        <time>2022-01-29T09:43:10Z</time>
      </trkpt>
      <trkpt lat="44.43329" lon="4.98514">
        <ele>270.676</ele>
        <time>2022-01-29T09:43:21Z</time>
      </trkpt>
      <trkpt lat="44.43281" lon="4.98537">
        <ele>268.072</ele>
        <time>2022-01-29T09:43:32Z</time>
      </trkpt>
      <trkpt lat="44.43206" lon="4.98561">
        <ele>266.385</ele>
        <time>2022-01-29T09:43:47Z</time>
      </trkpt>
      <trkpt lat="44.43166" lon="4.98582">
        <ele>267.231</ele>
        <time>2022-01-29T09:43:56Z</time>
      </trkpt>
      <trkpt lat="44.43124" lon="4.98609">
        <ele>268.58</ele>
        <time>2022-01-29T09:44:06Z</time>
      </trkpt>
      <trkpt lat="44.43043" lon="4.98632">
        <ele>269.1</ele>
        <time>2022-01-29T09:44:26Z</time>
      </trkpt>
      <trkpt lat="44.42944" lon="4.98631">
        <ele>268.146</ele>
        <time>2022-01-29T09:44:47Z</time>
      </trkpt>
      <trkpt lat="44.42937" lon="4.9864">
        <ele>267.871</ele>
        <time>2022-01-29T09:44:50Z</time>
      </trkpt>
      <trkpt lat="44.42938" lon="4.98654">
        <ele>267.066</ele>
        <time>2022-01-29T09:44:53Z</time>
      </trkpt>
      <trkpt lat="44.42934" lon="4.98674">
        <ele>265.872</ele>
        <time>2022-01-29T09:44:56Z</time>
      </trkpt>
      <trkpt lat="44.42925" lon="4.98688">
        <ele>264.853</ele>
        <time>2022-01-29T09:44:58Z</time>
      </trkpt>
      <trkpt lat="44.42871" lon="4.98739">
        <ele>258.066</ele>
        <time>2022-01-29T09:45:07Z</time>
      </trkpt>
      <trkpt lat="44.42809" lon="4.98808">
        <ele>254.013</ele>
        <time>2022-01-29T09:45:23Z</time>
      </trkpt>
      <trkpt lat="44.42801" lon="4.98827">
        <ele>254.087</ele>
        <time>2022-01-29T09:45:27Z</time>
      </trkpt>
      <trkpt lat="44.4279" lon="4.98845">
        <ele>254.145</ele>
        <time>2022-01-29T09:45:31Z</time>
      </trkpt>
      <trkpt lat="44.42751" lon="4.9889">
        <ele>254.79</ele>
        <time>2022-01-29T09:45:43Z</time>
      </trkpt>
      <trkpt lat="44.42686" lon="4.98958">
        <ele>258.331</ele>
        <time>2022-01-29T09:46:07Z</time>
      </trkpt>
      <trkpt lat="44.42686" lon="4.98962">
        <ele>258.457</ele>
        <time>2022-01-29T09:46:09Z</time>
      </trkpt>
      <trkpt lat="44.42691" lon="4.98975">
        <ele>258.845</ele>
        <time>2022-01-29T09:46:13Z</time>
      </trkpt>
      <trkpt lat="44.42708" lon="4.99039">
        <ele>262.346</ele>
        <time>2022-01-29T09:46:29Z</time>
      </trkpt>
      <trkpt lat="44.42721" lon="4.99103">
        <ele>265.84</ele>
        <time>2022-01-29T09:46:45Z</time>
      </trkpt>
      <trkpt lat="44.42733" lon="4.99129">
        <ele>267.516</ele>
        <time>2022-01-29T09:46:52Z</time>
      </trkpt>
      <trkpt lat="44.42773" lon="4.99185">
        <ele>270.704</ele>
        <time>2022-01-29T09:47:08Z</time>
      </trkpt>
      <trkpt lat="44.42814" lon="4.99216">
        <ele>272.569</ele>
        <time>2022-01-29T09:47:22Z</time>
      </trkpt>
      <trkpt lat="44.42846" lon="4.99243">
        <ele>275.32</ele>
        <time>2022-01-29T09:47:34Z</time>
      </trkpt>
      <trkpt lat="44.42859" lon="4.99258">
        <ele>276.261</ele>
        <time>2022-01-29T09:47:40Z</time>
      </trkpt>
      <trkpt lat="44.4291" lon="4.993">
        <ele>277.583</ele>
        <time>2022-01-29T09:48:00Z</time>
      </trkpt>
      <trkpt lat="44.42978" lon="4.99366">
        <ele>279.297</ele>
        <time>2022-01-29T09:48:27Z</time>
      </trkpt>
      <trkpt lat="44.42988" lon="4.99371">
        <ele>279.261</ele>
        <time>2022-01-29T09:48:31Z</time>
      </trkpt>
      <trkpt lat="44.43001" lon="4.99373">
        <ele>279.055</ele>
        <time>2022-01-29T09:48:34Z</time>
      </trkpt>
      <trkpt lat="44.43063" lon="4.99359">
        <ele>277.041</ele>
        <time>2022-01-29T09:48:50Z</time>
      </trkpt>
      <trkpt lat="44.43092" lon="4.99356">
        <ele>276.326</ele>
        <time>2022-01-29T09:48:59Z</time>
      </trkpt>
      <trkpt lat="44.4318" lon="4.99327">
        <ele>277.087</ele>
        <time>2022-01-29T09:49:27Z</time>
      </trkpt>
      <trkpt lat="44.43251" lon="4.99315">
        <ele>279.615</ele>
        <time>2022-01-29T09:49:49Z</time>
      </trkpt>
      <trkpt lat="44.43281" lon="4.99313">
        <ele>277.086</ele>
        <time>2022-01-29T09:49:58Z</time>
      </trkpt>
      <trkpt lat="44.43336" lon="4.99321">
        <ele>275.011</ele>
        <time>2022-01-29T09:50:16Z</time>
      </trkpt>
      <trkpt lat="44.43355" lon="4.99304">
        <ele>275.83</ele>
        <time>2022-01-29T09:50:24Z</time>
      </trkpt>
      <trkpt lat="44.4337" lon="4.99279">
        <ele>276.46</ele>
        <time>2022-01-29T09:50:32Z</time>
      </trkpt>
      <trkpt lat="44.43405" lon="4.99203">
        <ele>279.446</ele>
        <time>2022-01-29T09:50:54Z</time>
      </trkpt>
      <trkpt lat="44.43418" lon="4.99164">
        <ele>281.397</ele>
        <time>2022-01-29T09:51:05Z</time>
      </trkpt>
      <trkpt lat="44.43457" lon="4.99021">
        <ele>285.29</ele>
        <time>2022-01-29T09:51:45Z</time>
      </trkpt>
      <trkpt lat="44.43475" lon="4.98973">
        <ele>285.516</ele>
        <time>2022-01-29T09:52:00Z</time>
      </trkpt>
      <trkpt lat="44.43498" lon="4.98936">
        <ele>285.785</ele>
        <time>2022-01-29T09:52:13Z</time>
      </trkpt>
      <trkpt lat="44.43522" lon="4.98913">
        <ele>287.615</ele>
        <time>2022-01-29T09:52:25Z</time>
      </trkpt>
      <trkpt lat="44.43527" lon="4.98895">
        <ele>287.809</ele>
        <time>2022-01-29T09:52:36Z</time>
      </trkpt>
      <trkpt lat="44.43555" lon="4.98851">
        <ele>288.302</ele>
        <time>2022-01-29T10:13:22Z</time>
      </trkpt>
      <trkpt lat="44.43553" lon="4.98878">
        <ele>288.646</ele>
        <time>2022-01-29T10:14:24Z</time>
      </trkpt>
      <trkpt lat="44.43528" lon="4.98948">
        <ele>289.36</ele>
        <time>2022-01-29T10:14:38Z</time>
      </trkpt>
      <trkpt lat="44.43522" lon="4.98984">
        <ele>290.054</ele>
        <time>2022-01-29T10:14:45Z</time>
      </trkpt>
      <trkpt lat="44.43524" lon="4.99017">
        <ele>290.739</ele>
        <time>2022-01-29T10:14:52Z</time>
      </trkpt>
      <trkpt lat="44.43531" lon="4.99067">
        <ele>291.19</ele>
        <time>2022-01-29T10:15:04Z</time>
      </trkpt>
      <trkpt lat="44.43544" lon="4.99115">
        <ele>291.515</ele>
        <time>2022-01-29T10:15:18Z</time>
      </trkpt>
      <trkpt lat="44.43546" lon="4.99135">
        <ele>291.57</ele>
        <time>2022-01-29T10:15:24Z</time>
      </trkpt>
      <trkpt lat="44.43545" lon="4.9917">
        <ele>291.648</ele>
        <time>2022-01-29T10:15:33Z</time>
      </trkpt>
      <trkpt lat="44.43549" lon="4.99188">
        <ele>291.944</ele>
        <time>2022-01-29T10:15:38Z</time>
      </trkpt>
      <trkpt lat="44.43583" lon="4.99307">
        <ele>292.979</ele>
        <time>2022-01-29T10:16:13Z</time>
      </trkpt>
      <trkpt lat="44.43609" lon="4.99369">
        <ele>294.935</ele>
        <time>2022-01-29T10:16:32Z</time>
      </trkpt>
      <trkpt lat="44.4362" lon="4.9945">
        <ele>295.541</ele>
        <time>2022-01-29T10:16:53Z</time>
      </trkpt>
      <trkpt lat="44.43619" lon="4.99495">
        <ele>296.261</ele>
        <time>2022-01-29T10:17:05Z</time>
      </trkpt>
      <trkpt lat="44.43614" lon="4.9953">
        <ele>296.821</ele>
        <time>2022-01-29T10:17:14Z</time>
      </trkpt>
      <trkpt lat="44.43608" lon="4.99541">
        <ele>297.007</ele>
        <time>2022-01-29T10:17:18Z</time>
      </trkpt>
      <trkpt lat="44.43586" lon="4.99568">
        <ele>296.672</ele>
        <time>2022-01-29T10:17:29Z</time>
      </trkpt>
      <trkpt lat="44.43583" lon="4.99575">
        <ele>296.687</ele>
        <time>2022-01-29T10:17:31Z</time>
      </trkpt>
      <trkpt lat="44.4358" lon="4.996">
        <ele>297.119</ele>
        <time>2022-01-29T10:17:37Z</time>
      </trkpt>
      <trkpt lat="44.43584" lon="4.99641">
        <ele>296.044</ele>
        <time>2022-01-29T10:17:47Z</time>
      </trkpt>
      <trkpt lat="44.4359" lon="4.99667">
        <ele>295.647</ele>
        <time>2022-01-29T10:17:54Z</time>
      </trkpt>
      <trkpt lat="44.43601" lon="4.99687">
        <ele>293.68</ele>
        <time>2022-01-29T10:18:00Z</time>
      </trkpt>
      <trkpt lat="44.43644" lon="4.99714">
        <ele>295.248</ele>
        <time>2022-01-29T10:18:19Z</time>
      </trkpt>
      <trkpt lat="44.43687" lon="4.99746">
        <ele>295.502</ele>
        <time>2022-01-29T10:18:35Z</time>
      </trkpt>
      <trkpt lat="44.43712" lon="4.9976">
        <ele>294.869</ele>
        <time>2022-01-29T10:18:45Z</time>
      </trkpt>
      <trkpt lat="44.43715" lon="4.99731">
        <ele>298.655</ele>
        <time>2022-01-29T10:18:53Z</time>
      </trkpt>
      <trkpt lat="44.43743" lon="4.99626">
        <ele>298.471</ele>
        <time>2022-01-29T10:19:14Z</time>
      </trkpt>
      <trkpt lat="44.43755" lon="4.99561">
        <ele>298.448</ele>
        <time>2022-01-29T10:19:25Z</time>
      </trkpt>
      <trkpt lat="44.43769" lon="4.9951">
        <ele>297.953</ele>
        <time>2022-01-29T10:19:33Z</time>
      </trkpt>
      <trkpt lat="44.43821" lon="4.99355">
        <ele>296.77</ele>
        <time>2022-01-29T10:19:59Z</time>
      </trkpt>
      <trkpt lat="44.43824" lon="4.99336">
        <ele>296.812</ele>
        <time>2022-01-29T10:20:02Z</time>
      </trkpt>
      <trkpt lat="44.43852" lon="4.99254">
        <ele>296.992</ele>
        <time>2022-01-29T10:20:16Z</time>
      </trkpt>
      <trkpt lat="44.43861" lon="4.99233">
        <ele>297.195</ele>
        <time>2022-01-29T10:20:20Z</time>
      </trkpt>
      <trkpt lat="44.43881" lon="4.99203">
        <ele>297.456</ele>
        <time>2022-01-29T10:20:27Z</time>
      </trkpt>
      <trkpt lat="44.43891" lon="4.99193">
        <ele>297.5</ele>
        <time>2022-01-29T10:20:30Z</time>
      </trkpt>
      <trkpt lat="44.439" lon="4.99176">
        <ele>297.465</ele>
        <time>2022-01-29T10:20:34Z</time>
      </trkpt>
      <trkpt lat="44.4393" lon="4.99107">
        <ele>297.861</ele>
        <time>2022-01-29T10:20:49Z</time>
      </trkpt>
      <trkpt lat="44.43946" lon="4.99079">
        <ele>297.645</ele>
        <time>2022-01-29T10:20:56Z</time>
      </trkpt>
      <trkpt lat="44.4396" lon="4.9906">
        <ele>297.752</ele>
        <time>2022-01-29T10:21:01Z</time>
      </trkpt>
      <trkpt lat="44.43995" lon="4.99026">
        <ele>297.749</ele>
        <time>2022-01-29T10:21:12Z</time>
      </trkpt>
      <trkpt lat="44.4405" lon="4.9895">
        <ele>297.761</ele>
        <time>2022-01-29T10:21:31Z</time>
      </trkpt>
      <trkpt lat="44.44048" lon="4.98969">
        <ele>297.844</ele>
        <time>2022-01-29T10:22:44Z</time>
      </trkpt>
      <trkpt lat="44.4405" lon="4.98992">
        <ele>297.976</ele>
        <time>2022-01-29T10:22:50Z</time>
      </trkpt>
      <trkpt lat="44.44046" lon="4.99045">
        <ele>298.503</ele>
        <time>2022-01-29T10:23:03Z</time>
      </trkpt>
      <trkpt lat="44.44042" lon="4.99075">
        <ele>298.81</ele>
        <time>2022-01-29T10:23:10Z</time>
      </trkpt>
      <trkpt lat="44.44044" lon="4.99112">
        <ele>299.465</ele>
        <time>2022-01-29T10:23:19Z</time>
      </trkpt>
      <trkpt lat="44.44041" lon="4.99182">
        <ele>300.568</ele>
        <time>2022-01-29T10:23:35Z</time>
      </trkpt>
      <trkpt lat="44.44048" lon="4.99216">
        <ele>301.274</ele>
        <time>2022-01-29T10:23:44Z</time>
      </trkpt>
      <trkpt lat="44.4406" lon="4.99254">
        <ele>302.137</ele>
        <time>2022-01-29T10:23:54Z</time>
      </trkpt>
      <trkpt lat="44.44067" lon="4.99301">
        <ele>302.872</ele>
        <time>2022-01-29T10:24:06Z</time>
      </trkpt>
      <trkpt lat="44.44074" lon="4.99388">
        <ele>303.556</ele>
        <time>2022-01-29T10:24:25Z</time>
      </trkpt>
      <trkpt lat="44.44073" lon="4.99429">
        <ele>303.93</ele>
        <time>2022-01-29T10:24:34Z</time>
      </trkpt>
      <trkpt lat="44.44058" lon="4.99591">
        <ele>305.198</ele>
        <time>2022-01-29T10:25:07Z</time>
      </trkpt>
      <trkpt lat="44.44061" lon="4.99608">
        <ele>305.263</ele>
        <time>2022-01-29T10:25:11Z</time>
      </trkpt>
      <trkpt lat="44.44076" lon="4.99647">
        <ele>305.957</ele>
        <time>2022-01-29T10:25:20Z</time>
      </trkpt>
      <trkpt lat="44.44076" lon="4.99659">
        <ele>306.165</ele>
        <time>2022-01-29T10:25:23Z</time>
      </trkpt>
      <trkpt lat="44.44065" lon="4.99703">
        <ele>306.543</ele>
        <time>2022-01-29T10:25:33Z</time>
      </trkpt>
      <trkpt lat="44.4405" lon="4.99774">
        <ele>307.045</ele>
        <time>2022-01-29T10:25:48Z</time>
      </trkpt>
      <trkpt lat="44.44029" lon="4.99848">
        <ele>306.695</ele>
        <time>2022-01-29T10:26:05Z</time>
      </trkpt>
      <trkpt lat="44.44016" lon="4.99909">
        <ele>304.427</ele>
        <time>2022-01-29T10:26:19Z</time>
      </trkpt>
      <trkpt lat="44.44016" lon="4.99926">
        <ele>303.516</ele>
        <time>2022-01-29T10:26:23Z</time>
      </trkpt>
      <trkpt lat="44.44091" lon="4.99976">
        <ele>304.554</ele>
        <time>2022-01-29T10:26:49Z</time>
      </trkpt>
      <trkpt lat="44.44129" lon="5.00011">
        <ele>305.549</ele>
        <time>2022-01-29T10:27:02Z</time>
      </trkpt>
      <trkpt lat="44.44168" lon="5.00054">
        <ele>306.034</ele>
        <time>2022-01-29T10:27:16Z</time>
      </trkpt>
      <trkpt lat="44.44198" lon="5.00071">
        <ele>307.728</ele>
        <time>2022-01-29T10:27:28Z</time>
      </trkpt>
      <trkpt lat="44.44199" lon="5.00077">
        <ele>307.414</ele>
        <time>2022-01-29T10:27:31Z</time>
      </trkpt>
      <trkpt lat="44.44183" lon="5.00133">
        <ele>303.075</ele>
        <time>2022-01-29T10:27:39Z</time>
      </trkpt>
      <trkpt lat="44.44178" lon="5.00172">
        <ele>300.711</ele>
        <time>2022-01-29T10:27:42Z</time>
      </trkpt>
      <trkpt lat="44.44177" lon="5.00193">
        <ele>299.664</ele>
        <time>2022-01-29T10:27:44Z</time>
      </trkpt>
      <trkpt lat="44.4418" lon="5.00206">
        <ele>299.269</ele>
        <time>2022-01-29T10:27:46Z</time>
      </trkpt>
      <trkpt lat="44.44216" lon="5.00259">
        <ele>300.36</ele>
        <time>2022-01-29T10:27:59Z</time>
      </trkpt>
      <trkpt lat="44.44241" lon="5.00309">
        <ele>300.346</ele>
        <time>2022-01-29T10:28:10Z</time>
      </trkpt>
      <trkpt lat="44.44257" lon="5.00337">
        <ele>300.385</ele>
        <time>2022-01-29T10:28:19Z</time>
      </trkpt>
      <trkpt lat="44.44281" lon="5.00417">
        <ele>296.324</ele>
        <time>2022-01-29T10:28:33Z</time>
      </trkpt>
      <trkpt lat="44.44285" lon="5.00423">
        <ele>296.038</ele>
        <time>2022-01-29T10:28:35Z</time>
      </trkpt>
      <trkpt lat="44.44376" lon="5.004">
        <ele>300.653</ele>
        <time>2022-01-29T10:29:10Z</time>
      </trkpt>
      <trkpt lat="44.44422" lon="5.00379">
        <ele>302.474</ele>
        <time>2022-01-29T10:29:28Z</time>
      </trkpt>
      <trkpt lat="44.44443" lon="5.00365">
        <ele>303.63</ele>
        <time>2022-01-29T10:29:36Z</time>
      </trkpt>
      <trkpt lat="44.44464" lon="5.00345">
        <ele>304.017</ele>
        <time>2022-01-29T10:29:45Z</time>
      </trkpt>
      <trkpt lat="44.44484" lon="5.00314">
        <ele>304.7</ele>
        <time>2022-01-29T10:29:58Z</time>
      </trkpt>
      <trkpt lat="44.44483" lon="5.00263">
        <ele>308.641</ele>
        <time>2022-01-29T10:30:15Z</time>
      </trkpt>
      <trkpt lat="44.4448" lon="5.00245">
        <ele>309.999</ele>
        <time>2022-01-29T10:30:22Z</time>
      </trkpt>
      <trkpt lat="44.44479" lon="5.00207">
        <ele>312.582</ele>
        <time>2022-01-29T10:30:34Z</time>
      </trkpt>
      <trkpt lat="44.44482" lon="5.00163">
        <ele>315.785</ele>
        <time>2022-01-29T10:30:47Z</time>
      </trkpt>
      <trkpt lat="44.44494" lon="5.00098">
        <ele>317.937</ele>
        <time>2022-01-29T10:31:04Z</time>
      </trkpt>
      <trkpt lat="44.44513" lon="5.00053">
        <ele>319.089</ele>
        <time>2022-01-29T10:31:16Z</time>
      </trkpt>
      <trkpt lat="44.44522" lon="5.0002">
        <ele>319.681</ele>
        <time>2022-01-29T10:31:26Z</time>
      </trkpt>
      <trkpt lat="44.44541" lon="4.99934">
        <ele>319.225</ele>
        <time>2022-01-29T10:31:47Z</time>
      </trkpt>
      <trkpt lat="44.44542" lon="4.99917">
        <ele>319.28</ele>
        <time>2022-01-29T10:31:51Z</time>
      </trkpt>
      <trkpt lat="44.44519" lon="4.99685">
        <ele>318.995</ele>
        <time>2022-01-29T10:32:40Z</time>
      </trkpt>
      <trkpt lat="44.44515" lon="4.99671">
        <ele>318.79</ele>
        <time>2022-01-29T10:32:43Z</time>
      </trkpt>
      <trkpt lat="44.44505" lon="4.99653">
        <ele>318.315</ele>
        <time>2022-01-29T10:32:49Z</time>
      </trkpt>
      <trkpt lat="44.44502" lon="4.99642">
        <ele>318.17</ele>
        <time>2022-01-29T10:32:51Z</time>
      </trkpt>
      <trkpt lat="44.44501" lon="4.99624">
        <ele>318.135</ele>
        <time>2022-01-29T10:32:54Z</time>
      </trkpt>
      <trkpt lat="44.44514" lon="4.99465">
        <ele>315.26</ele>
        <time>2022-01-29T10:33:24Z</time>
      </trkpt>
      <trkpt lat="44.44529" lon="4.99367">
        <ele>312.107</ele>
        <time>2022-01-29T10:33:42Z</time>
      </trkpt>
      <trkpt lat="44.44532" lon="4.99323">
        <ele>310.994</ele>
        <time>2022-01-29T10:33:51Z</time>
      </trkpt>
      <trkpt lat="44.44526" lon="4.99282">
        <ele>310.066</ele>
        <time>2022-01-29T10:34:02Z</time>
      </trkpt>
      <trkpt lat="44.44527" lon="4.99224">
        <ele>308.802</ele>
        <time>2022-01-29T10:34:09Z</time>
      </trkpt>
      <trkpt lat="44.44535" lon="4.99111">
        <ele>305.402</ele>
        <time>2022-01-29T10:34:22Z</time>
      </trkpt>
      <trkpt lat="44.4454" lon="4.98853">
        <ele>298.182</ele>
        <time>2022-01-29T10:34:51Z</time>
      </trkpt>
      <trkpt lat="44.44559" lon="4.98707">
        <ele>293</ele>
        <time>2022-01-29T10:35:06Z</time>
      </trkpt>
      <trkpt lat="44.44563" lon="4.98662">
        <ele>291.647</ele>
        <time>2022-01-29T10:35:11Z</time>
      </trkpt>
      <trkpt lat="44.44558" lon="4.98578">
        <ele>288.846</ele>
        <time>2022-01-29T10:35:21Z</time>
      </trkpt>
      <trkpt lat="44.44564" lon="4.98554">
        <ele>287.71</ele>
        <time>2022-01-29T10:35:24Z</time>
      </trkpt>
      <trkpt lat="44.44565" lon="4.9852">
        <ele>286.068</ele>
        <time>2022-01-29T10:35:28Z</time>
      </trkpt>
      <trkpt lat="44.4456" lon="4.98497">
        <ele>285.656</ele>
        <time>2022-01-29T10:35:31Z</time>
      </trkpt>
      <trkpt lat="44.44555" lon="4.98484">
        <ele>285.451</ele>
        <time>2022-01-29T10:35:34Z</time>
      </trkpt>
      <trkpt lat="44.44564" lon="4.98412">
        <ele>283.332</ele>
        <time>2022-01-29T10:35:47Z</time>
      </trkpt>
      <trkpt lat="44.44564" lon="4.98395">
        <ele>282.661</ele>
        <time>2022-01-29T10:35:51Z</time>
      </trkpt>
      <trkpt lat="44.44558" lon="4.98377">
        <ele>282.147</ele>
        <time>2022-01-29T10:35:55Z</time>
      </trkpt>
      <trkpt lat="44.4454" lon="4.98343">
        <ele>280.296</ele>
        <time>2022-01-29T10:36:01Z</time>
        <extensions>
          <visugpx:TrkExtension xmlns:visugpx="https://www.visugpx.com/editgpx/">
            <visugpx:node>1</visugpx:node>
            </visugpx:TrkExtension>
        </extensions>
      </trkpt>
      <trkpt lat="44.44528" lon="4.98328">
        <ele>279</ele>
      </trkpt>
      <trkpt lat="44.44536" lon="4.98326">
        <ele>279.6</ele>
      </trkpt>
      <trkpt lat="44.44549" lon="4.9833">
        <ele>280.5</ele>
      </trkpt>
      <trkpt lat="44.44552" lon="4.9832">
        <ele>280.7</ele>
        <extensions>
          <visugpx:TrkExtension xmlns:visugpx="https://www.visugpx.com/editgpx/">
            <visugpx:node>2</visugpx:node>
            </visugpx:TrkExtension>
        </extensions>
      </trkpt>
      <trkpt lat="44.4456" lon="4.98321">
        <ele>281.729</ele>
        <time>2022-01-29T10:42:13Z</time>
        <extensions>
          <visugpx:TrkExtension xmlns:visugpx="https://www.visugpx.com/editgpx/">
            <visugpx:node>1</visugpx:node>
            </visugpx:TrkExtension>
        </extensions>
      </trkpt>
      <trkpt lat="44.44563" lon="4.98337">
        <ele>282.065</ele>
        <time>2022-01-29T10:42:19Z</time>
      </trkpt>
      <trkpt lat="44.44593" lon="4.98417">
        <ele>285.252</ele>
        <time>2022-01-29T10:42:42Z</time>
      </trkpt>
      <trkpt lat="44.4462" lon="4.98456">
        <ele>287.16</ele>
        <time>2022-01-29T10:42:53Z</time>
      </trkpt>
      <trkpt lat="44.44671" lon="4.98519">
        <ele>290.432</ele>
        <time>2022-01-29T10:43:13Z</time>
      </trkpt>
      <trkpt lat="44.44703" lon="4.98551">
        <ele>292.369</ele>
        <time>2022-01-29T10:43:26Z</time>
      </trkpt>
      <trkpt lat="44.44705" lon="4.98557">
        <ele>292.539</ele>
        <time>2022-01-29T10:46:34Z</time>
      </trkpt>
      <trkpt lat="44.44709" lon="4.98642">
        <ele>294.742</ele>
        <time>2022-01-29T10:47:02Z</time>
      </trkpt>
      <trkpt lat="44.44721" lon="4.98694">
        <ele>295.596</ele>
        <time>2022-01-29T10:47:13Z</time>
      </trkpt>
      <trkpt lat="44.44742" lon="4.98754">
        <ele>296.905</ele>
        <time>2022-01-29T10:47:25Z</time>
      </trkpt>
      <trkpt lat="44.44759" lon="4.98829">
        <ele>298.103</ele>
        <time>2022-01-29T10:47:40Z</time>
      </trkpt>
      <trkpt lat="44.4477" lon="4.98863">
        <ele>299.12</ele>
        <time>2022-01-29T10:47:47Z</time>
      </trkpt>
      <trkpt lat="44.44796" lon="4.98982">
        <ele>303.18</ele>
        <time>2022-01-29T10:48:11Z</time>
      </trkpt>
      <trkpt lat="44.44816" lon="4.99042">
        <ele>306.873</ele>
        <time>2022-01-29T10:48:25Z</time>
      </trkpt>
      <trkpt lat="44.44839" lon="4.99079">
        <ele>309.629</ele>
        <time>2022-01-29T10:48:40Z</time>
      </trkpt>
      <trkpt lat="44.44848" lon="4.99114">
        <ele>311.539</ele>
        <time>2022-01-29T10:48:52Z</time>
      </trkpt>
      <trkpt lat="44.44845" lon="4.99139">
        <ele>312.174</ele>
        <time>2022-01-29T10:48:57Z</time>
      </trkpt>
      <trkpt lat="44.44861" lon="4.99204">
        <ele>315.031</ele>
        <time>2022-01-29T10:49:14Z</time>
      </trkpt>
      <trkpt lat="44.44864" lon="4.99241">
        <ele>315.722</ele>
        <time>2022-01-29T10:49:25Z</time>
      </trkpt>
      <trkpt lat="44.44868" lon="4.99255">
        <ele>316.06</ele>
        <time>2022-01-29T10:49:29Z</time>
      </trkpt>
      <trkpt lat="44.44876" lon="4.99262">
        <ele>316.684</ele>
        <time>2022-01-29T10:49:33Z</time>
      </trkpt>
      <trkpt lat="44.44884" lon="4.99275">
        <ele>317.41</ele>
        <time>2022-01-29T10:49:37Z</time>
      </trkpt>
      <trkpt lat="44.44894" lon="4.99277">
        <ele>318.207</ele>
        <time>2022-01-29T10:49:42Z</time>
      </trkpt>
      <trkpt lat="44.44901" lon="4.99287">
        <ele>319.077</ele>
        <time>2022-01-29T10:49:46Z</time>
      </trkpt>
      <trkpt lat="44.44911" lon="4.99314">
        <ele>320.807</ele>
        <time>2022-01-29T10:49:54Z</time>
      </trkpt>
      <trkpt lat="44.44913" lon="4.99327">
        <ele>321.41</ele>
        <time>2022-01-29T10:49:58Z</time>
      </trkpt>
      <trkpt lat="44.44966" lon="4.9943">
        <ele>326.918</ele>
        <time>2022-01-29T10:50:36Z</time>
      </trkpt>
      <trkpt lat="44.44984" lon="4.99499">
        <ele>328.91</ele>
        <time>2022-01-29T10:51:00Z</time>
      </trkpt>
      <trkpt lat="44.44987" lon="4.99541">
        <ele>329.24</ele>
        <time>2022-01-29T10:51:12Z</time>
      </trkpt>
      <trkpt lat="44.44994" lon="4.99563">
        <ele>329.658</ele>
        <time>2022-01-29T10:51:19Z</time>
      </trkpt>
      <trkpt lat="44.44997" lon="4.99563">
        <ele>330.024</ele>
        <time>2022-01-29T10:51:21Z</time>
      </trkpt>
      <trkpt lat="44.45004" lon="4.99554">
        <ele>330.897</ele>
        <time>2022-01-29T10:51:26Z</time>
      </trkpt>
      <trkpt lat="44.45008" lon="4.99543">
        <ele>331.475</ele>
        <time>2022-01-29T10:51:32Z</time>
      </trkpt>
      <trkpt lat="44.45028" lon="4.99519">
        <ele>333.612</ele>
        <time>2022-01-29T10:51:44Z</time>
      </trkpt>
      <trkpt lat="44.45048" lon="4.99482">
        <ele>335.711</ele>
        <time>2022-01-29T10:51:58Z</time>
      </trkpt>
      <trkpt lat="44.45077" lon="4.99449">
        <ele>337.303</ele>
        <time>2022-01-29T10:52:11Z</time>
      </trkpt>
      <trkpt lat="44.45098" lon="4.99432">
        <ele>338.194</ele>
        <time>2022-01-29T10:52:21Z</time>
      </trkpt>
      <trkpt lat="44.45107" lon="4.99421">
        <ele>338.145</ele>
        <time>2022-01-29T10:52:27Z</time>
      </trkpt>
      <trkpt lat="44.45137" lon="4.99401">
        <ele>338.658</ele>
        <time>2022-01-29T10:52:38Z</time>
      </trkpt>
      <trkpt lat="44.45173" lon="4.99384">
        <ele>338.743</ele>
        <time>2022-01-29T10:52:52Z</time>
      </trkpt>
      <trkpt lat="44.45207" lon="4.99346">
        <ele>338.975</ele>
        <time>2022-01-29T10:53:10Z</time>
      </trkpt>
      <trkpt lat="44.45235" lon="4.9929">
        <ele>340.987</ele>
        <time>2022-01-29T10:53:27Z</time>
      </trkpt>
      <trkpt lat="44.45237" lon="4.99276">
        <ele>341.2</ele>
        <time>2022-01-29T10:53:32Z</time>
      </trkpt>
      <trkpt lat="44.45247" lon="4.99253">
        <ele>342.225</ele>
        <time>2022-01-29T10:53:39Z</time>
      </trkpt>
      <trkpt lat="44.45257" lon="4.99244">
        <ele>343.275</ele>
        <time>2022-01-29T10:53:43Z</time>
      </trkpt>
      <trkpt lat="44.45279" lon="4.99236">
        <ele>345.455</ele>
        <time>2022-01-29T10:53:53Z</time>
      </trkpt>
      <trkpt lat="44.45289" lon="4.99229">
        <ele>346.29</ele>
        <time>2022-01-29T10:53:58Z</time>
      </trkpt>
      <trkpt lat="44.45308" lon="4.992">
        <ele>346.911</ele>
        <time>2022-01-29T10:54:08Z</time>
      </trkpt>
      <trkpt lat="44.45318" lon="4.99163">
        <ele>346.283</ele>
        <time>2022-01-29T10:54:18Z</time>
      </trkpt>
      <trkpt lat="44.45319" lon="4.99147">
        <ele>345.8</ele>
        <time>2022-01-29T10:54:21Z</time>
      </trkpt>
      <trkpt lat="44.45313" lon="4.99123">
        <ele>344.517</ele>
        <time>2022-01-29T10:54:26Z</time>
      </trkpt>
      <trkpt lat="44.45316" lon="4.99104">
        <ele>344.518</ele>
        <time>2022-01-29T10:54:29Z</time>
      </trkpt>
      <trkpt lat="44.45328" lon="4.99064">
        <ele>345</ele>
        <time>2022-01-29T10:54:35Z</time>
      </trkpt>
      <trkpt lat="44.45329" lon="4.99051">
        <ele>345.485</ele>
        <time>2022-01-29T10:54:37Z</time>
      </trkpt>
      <trkpt lat="44.45326" lon="4.99033">
        <ele>346.98</ele>
        <time>2022-01-29T10:54:40Z</time>
      </trkpt>
      <trkpt lat="44.45321" lon="4.99025">
        <ele>347.271</ele>
        <time>2022-01-29T10:54:42Z</time>
      </trkpt>
      <trkpt lat="44.45303" lon="4.99016">
        <ele>345.01</ele>
        <time>2022-01-29T10:54:48Z</time>
      </trkpt>
      <trkpt lat="44.45295" lon="4.98998">
        <ele>344.706</ele>
        <time>2022-01-29T10:54:52Z</time>
      </trkpt>
      <trkpt lat="44.45292" lon="4.98976">
        <ele>343.885</ele>
        <time>2022-01-29T10:54:56Z</time>
      </trkpt>
      <trkpt lat="44.45291" lon="4.98888">
        <ele>341.497</ele>
        <time>2022-01-29T10:55:11Z</time>
      </trkpt>
      <trkpt lat="44.45297" lon="4.98813">
        <ele>342.429</ele>
        <time>2022-01-29T10:56:04Z</time>
      </trkpt>
      <trkpt lat="44.45292" lon="4.9878">
        <ele>341.554</ele>
        <time>2022-01-29T10:56:15Z</time>
      </trkpt>
      <trkpt lat="44.45293" lon="4.9877">
        <ele>341.49</ele>
        <time>2022-01-29T10:57:22Z</time>
      </trkpt>
      <trkpt lat="44.4529" lon="4.9876">
        <ele>341.014</ele>
        <time>2022-01-29T10:57:42Z</time>
      </trkpt>
      <trkpt lat="44.45287" lon="4.98729">
        <ele>339.889</ele>
        <time>2022-01-29T10:57:54Z</time>
      </trkpt>
      <trkpt lat="44.45293" lon="4.98735">
        <ele>340.705</ele>
        <time>2022-01-29T11:06:18Z</time>
      </trkpt>
      <trkpt lat="44.45288" lon="4.98734">
        <ele>340.169</ele>
        <time>2022-01-29T11:07:48Z</time>
      </trkpt>
      <trkpt lat="44.45284" lon="4.98728">
        <ele>339.522</ele>
        <time>2022-01-29T11:07:50Z</time>
      </trkpt>
      <trkpt lat="44.45259" lon="4.98663">
        <ele>335.96</ele>
        <time>2022-01-29T11:08:05Z</time>
      </trkpt>
      <trkpt lat="44.45248" lon="4.98614">
        <ele>334.389</ele>
        <time>2022-01-29T11:08:14Z</time>
      </trkpt>
      <trkpt lat="44.45248" lon="4.98576">
        <ele>333.149</ele>
        <time>2022-01-29T11:08:21Z</time>
      </trkpt>
      <trkpt lat="44.45241" lon="4.98551">
        <ele>331.703</ele>
        <time>2022-01-29T11:08:27Z</time>
      </trkpt>
      <trkpt lat="44.45234" lon="4.98487">
        <ele>328.024</ele>
        <time>2022-01-29T11:08:41Z</time>
      </trkpt>
      <trkpt lat="44.4523" lon="4.9847">
        <ele>327.005</ele>
        <time>2022-01-29T11:08:45Z</time>
      </trkpt>
      <trkpt lat="44.45219" lon="4.9845">
        <ele>325.395</ele>
        <time>2022-01-29T11:08:52Z</time>
      </trkpt>
      <trkpt lat="44.45215" lon="4.98437">
        <ele>324.603</ele>
        <time>2022-01-29T11:09:03Z</time>
      </trkpt>
      <trkpt lat="44.45202" lon="4.98438">
        <ele>323.485</ele>
        <time>2022-01-29T11:09:19Z</time>
      </trkpt>
      <trkpt lat="44.45199" lon="4.98429">
        <ele>322.892</ele>
        <time>2022-01-29T11:09:24Z</time>
      </trkpt>
      <trkpt lat="44.45209" lon="4.98411">
        <ele>323.443</ele>
        <time>2022-01-29T11:09:32Z</time>
      </trkpt>
      <trkpt lat="44.45212" lon="4.98401">
        <ele>323.575</ele>
        <time>2022-01-29T11:09:37Z</time>
      </trkpt>
      <trkpt lat="44.45215" lon="4.98318">
        <ele>323.801</ele>
        <time>2022-01-29T11:09:58Z</time>
      </trkpt>
      <trkpt lat="44.45219" lon="4.98266">
        <ele>323.981</ele>
        <time>2022-01-29T11:10:06Z</time>
      </trkpt>
      <trkpt lat="44.45216" lon="4.98191">
        <ele>320.783</ele>
        <time>2022-01-29T11:10:19Z</time>
      </trkpt>
      <trkpt lat="44.45219" lon="4.98154">
        <ele>319.851</ele>
        <time>2022-01-29T11:10:25Z</time>
      </trkpt>
      <trkpt lat="44.45204" lon="4.98062">
        <ele>316.601</ele>
        <time>2022-01-29T11:10:41Z</time>
      </trkpt>
      <trkpt lat="44.45198" lon="4.98041">
        <ele>315.715</ele>
        <time>2022-01-29T11:10:45Z</time>
      </trkpt>
      <trkpt lat="44.45183" lon="4.97938">
        <ele>313.444</ele>
        <time>2022-01-29T11:11:02Z</time>
      </trkpt>
      <trkpt lat="44.45183" lon="4.9787">
        <ele>313.1</ele>
        <time>2022-01-29T11:11:12Z</time>
      </trkpt>
      <trkpt lat="44.45163" lon="4.97791">
        <ele>310.342</ele>
        <time>2022-01-29T11:11:25Z</time>
      </trkpt>
      <trkpt lat="44.45157" lon="4.97711">
        <ele>308.648</ele>
        <time>2022-01-29T11:11:36Z</time>
      </trkpt>
      <trkpt lat="44.45162" lon="4.97644">
        <ele>308.618</ele>
        <time>2022-01-29T11:11:49Z</time>
      </trkpt>
      <trkpt lat="44.45158" lon="4.97586">
        <ele>308.994</ele>
        <time>2022-01-29T11:12:01Z</time>
      </trkpt>
      <trkpt lat="44.45151" lon="4.97525">
        <ele>309.202</ele>
        <time>2022-01-29T11:12:14Z</time>
      </trkpt>
      <trkpt lat="44.45148" lon="4.97521">
        <ele>309.07</ele>
        <time>2022-01-29T11:12:20Z</time>
      </trkpt>
      <trkpt lat="44.45092" lon="4.97497">
        <ele>307.099</ele>
        <time>2022-01-29T11:12:35Z</time>
      </trkpt>
      <trkpt lat="44.45084" lon="4.97489">
        <ele>306.76</ele>
        <time>2022-01-29T11:12:37Z</time>
      </trkpt>
      <trkpt lat="44.45074" lon="4.97465">
        <ele>306.214</ele>
        <time>2022-01-29T11:12:42Z</time>
      </trkpt>
      <trkpt lat="44.45062" lon="4.97406">
        <ele>305.043</ele>
        <time>2022-01-29T11:12:57Z</time>
      </trkpt>
      <trkpt lat="44.45083" lon="4.97329">
        <ele>306.371</ele>
        <time>2022-01-29T11:13:16Z</time>
      </trkpt>
      <trkpt lat="44.45108" lon="4.97289">
        <ele>307.908</ele>
        <time>2022-01-29T11:13:28Z</time>
      </trkpt>
      <trkpt lat="44.4515" lon="4.97196">
        <ele>309.146</ele>
        <time>2022-01-29T11:13:51Z</time>
      </trkpt>
      <trkpt lat="44.45155" lon="4.9718">
        <ele>309.325</ele>
        <time>2022-01-29T11:13:55Z</time>
      </trkpt>
      <trkpt lat="44.45164" lon="4.97164">
        <ele>309.89</ele>
        <time>2022-01-29T11:16:18Z</time>
      </trkpt>
      <trkpt lat="44.45173" lon="4.97135">
        <ele>310.67</ele>
        <time>2022-01-29T11:16:30Z</time>
      </trkpt>
      <trkpt lat="44.45177" lon="4.97115">
        <ele>310.94</ele>
        <time>2022-01-29T11:16:35Z</time>
      </trkpt>
      <trkpt lat="44.45175" lon="4.97111">
        <ele>310.8</ele>
        <time>2022-01-29T11:16:37Z</time>
      </trkpt>
      <trkpt lat="44.45162" lon="4.97107">
        <ele>309.61</ele>
        <time>2022-01-29T11:16:42Z</time>
      </trkpt>
      <trkpt lat="44.45142" lon="4.97088">
        <ele>307.608</ele>
        <time>2022-01-29T11:16:49Z</time>
      </trkpt>
      <trkpt lat="44.45136" lon="4.97076">
        <ele>307.044</ele>
        <time>2022-01-29T11:16:52Z</time>
      </trkpt>
      <trkpt lat="44.45116" lon="4.97052">
        <ele>305.293</ele>
        <time>2022-01-29T11:16:59Z</time>
      </trkpt>
      <trkpt lat="44.45121" lon="4.97008">
        <ele>305.335</ele>
        <time>2022-01-29T11:17:07Z</time>
      </trkpt>
      <trkpt lat="44.45111" lon="4.96973">
        <ele>304.631</ele>
        <time>2022-01-29T11:17:14Z</time>
      </trkpt>
      <trkpt lat="44.45084" lon="4.96912">
        <ele>304.094</ele>
        <time>2022-01-29T11:17:25Z</time>
      </trkpt>
      <trkpt lat="44.45077" lon="4.96902">
        <ele>303.795</ele>
        <time>2022-01-29T11:17:27Z</time>
      </trkpt>
      <trkpt lat="44.45059" lon="4.96861">
        <ele>302.994</ele>
        <time>2022-01-29T11:17:34Z</time>
      </trkpt>
      <trkpt lat="44.45044" lon="4.96809">
        <ele>302.416</ele>
        <time>2022-01-29T11:17:43Z</time>
      </trkpt>
      <trkpt lat="44.45042" lon="4.96791">
        <ele>302.145</ele>
        <time>2022-01-29T11:17:46Z</time>
      </trkpt>
      <trkpt lat="44.45036" lon="4.96771">
        <ele>301.723</ele>
        <time>2022-01-29T11:17:50Z</time>
      </trkpt>
      <trkpt lat="44.45027" lon="4.96762">
        <ele>301.453</ele>
        <time>2022-01-29T11:17:53Z</time>
      </trkpt>
      <trkpt lat="44.45016" lon="4.96758">
        <ele>301.263</ele>
        <time>2022-01-29T11:17:56Z</time>
      </trkpt>
      <trkpt lat="44.45004" lon="4.96736">
        <ele>300.582</ele>
        <time>2022-01-29T11:18:02Z</time>
      </trkpt>
      <trkpt lat="44.44993" lon="4.96702">
        <ele>299.515</ele>
        <time>2022-01-29T11:18:10Z</time>
      </trkpt>
      <trkpt lat="44.44981" lon="4.96684">
        <ele>298.96</ele>
        <time>2022-01-29T11:18:15Z</time>
      </trkpt>
      <trkpt lat="44.44968" lon="4.96676">
        <ele>298.624</ele>
        <time>2022-01-29T11:18:19Z</time>
      </trkpt>
      <trkpt lat="44.44918" lon="4.96679">
        <ele>298.086</ele>
        <time>2022-01-29T11:18:30Z</time>
      </trkpt>
      <trkpt lat="44.44915" lon="4.96675">
        <ele>297.837</ele>
        <time>2022-01-29T11:18:32Z</time>
      </trkpt>
      <trkpt lat="44.44912" lon="4.9666">
        <ele>297.073</ele>
        <time>2022-01-29T11:18:36Z</time>
      </trkpt>
      <trkpt lat="44.44907" lon="4.96577">
        <ele>293.934</ele>
        <time>2022-01-29T11:18:49Z</time>
      </trkpt>
      <trkpt lat="44.44897" lon="4.96533">
        <ele>291.596</ele>
        <time>2022-01-29T11:18:57Z</time>
      </trkpt>
      <trkpt lat="44.4489" lon="4.96516">
        <ele>290.647</ele>
        <time>2022-01-29T11:19:01Z</time>
      </trkpt>
      <trkpt lat="44.44878" lon="4.96503">
        <ele>289.4</ele>
        <time>2022-01-29T11:19:05Z</time>
      </trkpt>
      <trkpt lat="44.44877" lon="4.96498">
        <ele>289.124</ele>
        <time>2022-01-29T11:19:06Z</time>
      </trkpt>
      <trkpt lat="44.4488" lon="4.96477">
        <ele>288.319</ele>
        <time>2022-01-29T11:19:10Z</time>
      </trkpt>
      <trkpt lat="44.44888" lon="4.96446">
        <ele>287.202</ele>
        <time>2022-01-29T11:19:16Z</time>
      </trkpt>
      <trkpt lat="44.44915" lon="4.96376">
        <ele>286.05</ele>
        <time>2022-01-29T11:19:27Z</time>
      </trkpt>
      <trkpt lat="44.44951" lon="4.9627">
        <ele>287.796</ele>
        <time>2022-01-29T11:19:47Z</time>
      </trkpt>
      <trkpt lat="44.44972" lon="4.96213">
        <ele>289.771</ele>
        <time>2022-01-29T11:20:00Z</time>
      </trkpt>
      <trkpt lat="44.44975" lon="4.96199">
        <ele>288.868</ele>
        <time>2022-01-29T11:20:03Z</time>
      </trkpt>
      <trkpt lat="44.44984" lon="4.96172">
        <ele>286.916</ele>
        <time>2022-01-29T11:20:07Z</time>
      </trkpt>
      <trkpt lat="44.44986" lon="4.96158">
        <ele>285.584</ele>
        <time>2022-01-29T11:20:09Z</time>
      </trkpt>
      <trkpt lat="44.44985" lon="4.9613">
        <ele>283.088</ele>
        <time>2022-01-29T11:20:15Z</time>
      </trkpt>
      <trkpt lat="44.44991" lon="4.96127">
        <ele>282.413</ele>
        <time>2022-01-29T11:20:18Z</time>
      </trkpt>
      <trkpt lat="44.45015" lon="4.96141">
        <ele>282.391</ele>
        <time>2022-01-29T11:20:24Z</time>
      </trkpt>
      <trkpt lat="44.45082" lon="4.96163">
        <ele>278.128</ele>
        <time>2022-01-29T11:20:35Z</time>
      </trkpt>
      <trkpt lat="44.45134" lon="4.96173">
        <ele>276.346</ele>
        <time>2022-01-29T11:20:44Z</time>
      </trkpt>
      <trkpt lat="44.45192" lon="4.96176">
        <ele>275.117</ele>
        <time>2022-01-29T11:20:55Z</time>
      </trkpt>
      <trkpt lat="44.45223" lon="4.96171">
        <ele>274.605</ele>
        <time>2022-01-29T11:21:01Z</time>
      </trkpt>
      <trkpt lat="44.4535" lon="4.96117">
        <ele>270.957</ele>
        <time>2022-01-29T11:21:28Z</time>
      </trkpt>
      <trkpt lat="44.45429" lon="4.96091">
        <ele>274.289</ele>
        <time>2022-01-29T11:21:52Z</time>
      </trkpt>
      <trkpt lat="44.45452" lon="4.96076">
        <ele>274.754</ele>
        <time>2022-01-29T11:22:00Z</time>
      </trkpt>
      <trkpt lat="44.4549" lon="4.96059">
        <ele>275.281</ele>
        <time>2022-01-29T11:22:12Z</time>
      </trkpt>
      <trkpt lat="44.45556" lon="4.96036">
        <ele>277.465</ele>
        <time>2022-01-29T11:22:30Z</time>
      </trkpt>
      <trkpt lat="44.45561" lon="4.96029">
        <ele>277.791</ele>
        <time>2022-01-29T11:22:32Z</time>
      </trkpt>
      <trkpt lat="44.45567" lon="4.96009">
        <ele>278.328</ele>
        <time>2022-01-29T11:22:36Z</time>
      </trkpt>
      <trkpt lat="44.45613" lon="4.95902">
        <ele>280.783</ele>
        <time>2022-01-29T11:23:03Z</time>
      </trkpt>
      <trkpt lat="44.4564" lon="4.95875">
        <ele>281.038</ele>
        <time>2022-01-29T11:23:19Z</time>
      </trkpt>
      <trkpt lat="44.4564" lon="4.95847">
        <ele>279.441</ele>
        <time>2022-01-29T11:23:57Z</time>
      </trkpt>
      <trkpt lat="44.45623" lon="4.9583">
        <ele>278.587</ele>
        <time>2022-01-29T11:24:09Z</time>
      </trkpt>
      <trkpt lat="44.45596" lon="4.95812">
        <ele>277.451</ele>
        <time>2022-01-29T11:24:17Z</time>
      </trkpt>
      <trkpt lat="44.45601" lon="4.95808">
        <ele>277.268</ele>
        <time>2022-01-29T11:25:02Z</time>
      </trkpt>
      <trkpt lat="44.456" lon="4.95811">
        <ele>277.43</ele>
        <time>2022-01-29T11:25:05Z</time>
      </trkpt>
      <trkpt lat="44.45576" lon="4.95796">
        <ele>276.602</ele>
        <time>2022-01-29T11:25:50Z</time>
      </trkpt>
      <trkpt lat="44.45549" lon="4.95764">
        <ele>275.173</ele>
        <time>2022-01-29T11:25:58Z</time>
      </trkpt>
      <trkpt lat="44.4554" lon="4.95757">
        <ele>275.087</ele>
        <time>2022-01-29T11:26:00Z</time>
      </trkpt>
      <trkpt lat="44.45512" lon="4.95748">
        <ele>274.66</ele>
        <time>2022-01-29T11:26:06Z</time>
      </trkpt>
      <trkpt lat="44.45487" lon="4.95734">
        <ele>273.785</ele>
        <time>2022-01-29T11:26:12Z</time>
      </trkpt>
      <trkpt lat="44.45474" lon="4.9573">
        <ele>273.342</ele>
        <time>2022-01-29T11:26:15Z</time>
      </trkpt>
      <trkpt lat="44.4544" lon="4.95709">
        <ele>272.189</ele>
        <time>2022-01-29T11:26:22Z</time>
      </trkpt>
      <trkpt lat="44.45407" lon="4.95658">
        <ele>271.371</ele>
        <time>2022-01-29T11:26:31Z</time>
      </trkpt>
      <trkpt lat="44.4537" lon="4.9561">
        <ele>269.889</ele>
        <time>2022-01-29T11:26:40Z</time>
      </trkpt>
      <trkpt lat="44.45354" lon="4.95576">
        <ele>267.97</ele>
        <time>2022-01-29T11:26:45Z</time>
      </trkpt>
      <trkpt lat="44.45332" lon="4.95547">
        <ele>266.25</ele>
        <time>2022-01-29T11:26:50Z</time>
      </trkpt>
      <trkpt lat="44.45327" lon="4.95533">
        <ele>265.566</ele>
        <time>2022-01-29T11:26:52Z</time>
      </trkpt>
      <trkpt lat="44.45323" lon="4.95474">
        <ele>261.677</ele>
        <time>2022-01-29T11:27:00Z</time>
      </trkpt>
      <trkpt lat="44.45325" lon="4.95461">
        <ele>260.789</ele>
        <time>2022-01-29T11:27:06Z</time>
      </trkpt>
      <trkpt lat="44.45323" lon="4.95458">
        <ele>260.567</ele>
        <time>2022-01-29T11:27:09Z</time>
      </trkpt>
      <trkpt lat="44.45322" lon="4.95461">
        <ele>260.75</ele>
        <time>2022-01-29T11:27:12Z</time>
      </trkpt>
      <trkpt lat="44.45359" lon="4.95466">
        <ele>260.823</ele>
        <time>2022-01-29T11:27:23Z</time>
      </trkpt>
      <trkpt lat="44.45376" lon="4.95458">
        <ele>260.666</ele>
        <time>2022-01-29T11:27:28Z</time>
      </trkpt>
      <trkpt lat="44.4539" lon="4.95458">
        <ele>260.674</ele>
        <time>2022-01-29T11:27:35Z</time>
      </trkpt>
      <trkpt lat="44.454" lon="4.95453">
        <ele>260.796</ele>
        <time>2022-01-29T11:28:22Z</time>
      </trkpt>
      <trkpt lat="44.45419" lon="4.95451">
        <ele>261.619</ele>
        <time>2022-01-29T11:28:27Z</time>
      </trkpt>
      <trkpt lat="44.45434" lon="4.95443">
        <ele>263.059</ele>
        <time>2022-01-29T11:28:32Z</time>
      </trkpt>
      <trkpt lat="44.45444" lon="4.95443">
        <ele>263.746</ele>
        <time>2022-01-29T11:28:35Z</time>
      </trkpt>
      <trkpt lat="44.45474" lon="4.95464">
        <ele>264.91</ele>
        <time>2022-01-29T11:28:48Z</time>
      </trkpt>
      <trkpt lat="44.45481" lon="4.95465">
        <ele>265.49</ele>
        <time>2022-01-29T11:28:52Z</time>
      </trkpt>
      <trkpt lat="44.45484" lon="4.9546">
        <ele>265.961</ele>
        <time>2022-01-29T11:28:56Z</time>
      </trkpt>
      <trkpt lat="44.45484" lon="4.95449">
        <ele>266.626</ele>
        <time>2022-01-29T11:29:01Z</time>
      </trkpt>
      <trkpt lat="44.45489" lon="4.95432">
        <ele>267.796</ele>
        <time>2022-01-29T11:29:07Z</time>
      </trkpt>
      <trkpt lat="44.45494" lon="4.95384">
        <ele>269.292</ele>
        <time>2022-01-29T11:29:21Z</time>
      </trkpt>
      <trkpt lat="44.45501" lon="4.95378">
        <ele>269.786</ele>
        <time>2022-01-29T11:29:25Z</time>
      </trkpt>
      <trkpt lat="44.4557" lon="4.95414">
        <ele>274.15</ele>
        <time>2022-01-29T11:29:51Z</time>
      </trkpt>
      <trkpt lat="44.45591" lon="4.95428">
        <ele>275.112</ele>
        <time>2022-01-29T11:29:59Z</time>
      </trkpt>
      <trkpt lat="44.45613" lon="4.95437">
        <ele>276.156</ele>
        <time>2022-01-29T11:30:07Z</time>
      </trkpt>
      <trkpt lat="44.45646" lon="4.95445">
        <ele>278.064</ele>
        <time>2022-01-29T11:30:19Z</time>
      </trkpt>
      <trkpt lat="44.45668" lon="4.95438">
        <ele>279.391</ele>
        <time>2022-01-29T11:30:27Z</time>
      </trkpt>
      <trkpt lat="44.45724" lon="4.95445">
        <ele>283.217</ele>
        <time>2022-01-29T11:30:47Z</time>
      </trkpt>
      <trkpt lat="44.45735" lon="4.95451">
        <ele>284.034</ele>
        <time>2022-01-29T11:30:51Z</time>
      </trkpt>
      <trkpt lat="44.45756" lon="4.95449">
        <ele>285.438</ele>
        <time>2022-01-29T11:30:59Z</time>
      </trkpt>
      <trkpt lat="44.45767" lon="4.95452">
        <ele>286.221</ele>
        <time>2022-01-29T11:31:03Z</time>
      </trkpt>
      <trkpt lat="44.45807" lon="4.95487">
        <ele>288.747</ele>
        <time>2022-01-29T11:31:20Z</time>
      </trkpt>
      <trkpt lat="44.45824" lon="4.95507">
        <ele>289.242</ele>
        <time>2022-01-29T11:31:27Z</time>
      </trkpt>
      <trkpt lat="44.45846" lon="4.95522">
        <ele>289.312</ele>
        <time>2022-01-29T11:31:36Z</time>
      </trkpt>
      <trkpt lat="44.45863" lon="4.95527">
        <ele>289.254</ele>
        <time>2022-01-29T11:31:42Z</time>
      </trkpt>
      <trkpt lat="44.45898" lon="4.95523">
        <ele>289.194</ele>
        <time>2022-01-29T11:31:54Z</time>
      </trkpt>
      <trkpt lat="44.45949" lon="4.95505">
        <ele>289.017</ele>
        <time>2022-01-29T11:32:12Z</time>
      </trkpt>
      <trkpt lat="44.45967" lon="4.95496">
        <ele>289.335</ele>
        <time>2022-01-29T11:32:18Z</time>
      </trkpt>
      <trkpt lat="44.46002" lon="4.9547">
        <ele>290.257</ele>
        <time>2022-01-29T11:32:31Z</time>
      </trkpt>
      <trkpt lat="44.4603" lon="4.95458">
        <ele>291.156</ele>
        <time>2022-01-29T11:32:42Z</time>
      </trkpt>
      <trkpt lat="44.4606" lon="4.95441">
        <ele>292.245</ele>
        <time>2022-01-29T11:32:52Z</time>
      </trkpt>
      <trkpt lat="44.46079" lon="4.95435">
        <ele>292.483</ele>
        <time>2022-01-29T11:32:58Z</time>
      </trkpt>
      <trkpt lat="44.46127" lon="4.95435">
        <ele>293.94</ele>
        <time>2022-01-29T11:33:11Z</time>
      </trkpt>
      <trkpt lat="44.46137" lon="4.95439">
        <ele>294.188</ele>
        <time>2022-01-29T11:33:14Z</time>
      </trkpt>
      <trkpt lat="44.4615" lon="4.9545">
        <ele>294.877</ele>
        <time>2022-01-29T11:33:18Z</time>
      </trkpt>
      <trkpt lat="44.46168" lon="4.95458">
        <ele>294.691</ele>
        <time>2022-01-29T11:33:23Z</time>
      </trkpt>
      <trkpt lat="44.46191" lon="4.95461">
        <ele>294.672</ele>
        <time>2022-01-29T11:33:30Z</time>
      </trkpt>
      <trkpt lat="44.46228" lon="4.95474">
        <ele>294.681</ele>
        <time>2022-01-29T11:33:40Z</time>
      </trkpt>
      <trkpt lat="44.46247" lon="4.95485">
        <ele>294.791</ele>
        <time>2022-01-29T11:33:46Z</time>
      </trkpt>
      <trkpt lat="44.46288" lon="4.95517">
        <ele>295.305</ele>
        <time>2022-01-29T11:34:01Z</time>
      </trkpt>
      <trkpt lat="44.46308" lon="4.95547">
        <ele>295.472</ele>
        <time>2022-01-29T11:34:09Z</time>
      </trkpt>
      <trkpt lat="44.46344" lon="4.95588">
        <ele>296.896</ele>
        <time>2022-01-29T11:34:21Z</time>
      </trkpt>
      <trkpt lat="44.46388" lon="4.95624">
        <ele>300.226</ele>
        <time>2022-01-29T11:34:35Z</time>
      </trkpt>
      <trkpt lat="44.46399" lon="4.95638">
        <ele>301.045</ele>
        <time>2022-01-29T11:34:40Z</time>
      </trkpt>
      <trkpt lat="44.46408" lon="4.95656">
        <ele>301.821</ele>
        <time>2022-01-29T11:34:47Z</time>
      </trkpt>
      <trkpt lat="44.46398" lon="4.95665">
        <ele>301.699</ele>
        <time>2022-01-29T11:34:53Z</time>
      </trkpt>
      <trkpt lat="44.46373" lon="4.95733">
        <ele>301.943</ele>
        <time>2022-01-29T11:35:08Z</time>
      </trkpt>
      <trkpt lat="44.46358" lon="4.95781">
        <ele>301.214</ele>
        <time>2022-01-29T11:35:16Z</time>
      </trkpt>
      <trkpt lat="44.46351" lon="4.95814">
        <ele>301.191</ele>
        <time>2022-01-29T11:35:21Z</time>
      </trkpt>
      <trkpt lat="44.46347" lon="4.95855">
        <ele>301.28</ele>
        <time>2022-01-29T11:35:27Z</time>
      </trkpt>
      <trkpt lat="44.46344" lon="4.95956">
        <ele>300.289</ele>
        <time>2022-01-29T11:35:42Z</time>
      </trkpt>
      <trkpt lat="44.4634" lon="4.95969">
        <ele>299.964</ele>
        <time>2022-01-29T11:35:44Z</time>
      </trkpt>
      <trkpt lat="44.46334" lon="4.95981">
        <ele>299.664</ele>
        <time>2022-01-29T11:35:46Z</time>
      </trkpt>
      <trkpt lat="44.46311" lon="4.96008">
        <ele>298.214</ele>
        <time>2022-01-29T11:35:52Z</time>
      </trkpt>
      <trkpt lat="44.46304" lon="4.96021">
        <ele>297.711</ele>
        <time>2022-01-29T11:35:54Z</time>
      </trkpt>
      <trkpt lat="44.46283" lon="4.96153">
        <ele>295.745</ele>
        <time>2022-01-29T11:36:13Z</time>
      </trkpt>
      <trkpt lat="44.46285" lon="4.96181">
        <ele>296.818</ele>
        <time>2022-01-29T11:36:18Z</time>
      </trkpt>
      <trkpt lat="44.46297" lon="4.96205">
        <ele>298.305</ele>
        <time>2022-01-29T11:36:24Z</time>
      </trkpt>
      <trkpt lat="44.46329" lon="4.96227">
        <ele>302.182</ele>
        <time>2022-01-29T11:36:34Z</time>
      </trkpt>
      <trkpt lat="44.46341" lon="4.9624">
        <ele>303.31</ele>
        <time>2022-01-29T11:36:38Z</time>
      </trkpt>
      <trkpt lat="44.46356" lon="4.96269">
        <ele>305.433</ele>
        <time>2022-01-29T11:36:46Z</time>
      </trkpt>
      <trkpt lat="44.46375" lon="4.96292">
        <ele>307.845</ele>
        <time>2022-01-29T11:36:56Z</time>
      </trkpt>
      <trkpt lat="44.46407" lon="4.96312">
        <ele>309.142</ele>
        <time>2022-01-29T11:37:09Z</time>
      </trkpt>
      <trkpt lat="44.46457" lon="4.9641">
        <ele>312.592</ele>
        <time>2022-01-29T11:37:39Z</time>
      </trkpt>
      <trkpt lat="44.46456" lon="4.96417">
        <ele>313.506</ele>
        <time>2022-01-29T11:37:41Z</time>
      </trkpt>
      <trkpt lat="44.46453" lon="4.96421">
        <ele>314.125</ele>
        <time>2022-01-29T11:37:43Z</time>
      </trkpt>
      <trkpt lat="44.46376" lon="4.9644">
        <ele>316.683</ele>
        <time>2022-01-29T11:38:08Z</time>
      </trkpt>
      <trkpt lat="44.46355" lon="4.96453">
        <ele>316.027</ele>
        <time>2022-01-29T11:38:14Z</time>
      </trkpt>
      <trkpt lat="44.46318" lon="4.96487">
        <ele>314.645</ele>
        <time>2022-01-29T11:38:25Z</time>
      </trkpt>
      <trkpt lat="44.46315" lon="4.96494">
        <ele>314.564</ele>
        <time>2022-01-29T11:38:28Z</time>
      </trkpt>
      <trkpt lat="44.46318" lon="4.96498">
        <ele>314.871</ele>
        <time>2022-01-29T11:38:30Z</time>
      </trkpt>
      <trkpt lat="44.46353" lon="4.96504">
        <ele>317.562</ele>
        <time>2022-01-29T11:38:46Z</time>
      </trkpt>
      <trkpt lat="44.46384" lon="4.96506">
        <ele>319.917</ele>
        <time>2022-01-29T11:39:00Z</time>
      </trkpt>
      <trkpt lat="44.46392" lon="4.96514">
        <ele>320.815</ele>
        <time>2022-01-29T11:39:04Z</time>
      </trkpt>
      <trkpt lat="44.464" lon="4.96545">
        <ele>323.158</ele>
        <time>2022-01-29T11:39:16Z</time>
      </trkpt>
      <trkpt lat="44.4643" lon="4.96599">
        <ele>328.055</ele>
        <time>2022-01-29T11:39:36Z</time>
      </trkpt>
      <trkpt lat="44.46442" lon="4.96608">
        <ele>329.12</ele>
        <time>2022-01-29T11:39:41Z</time>
      </trkpt>
      <trkpt lat="44.46462" lon="4.96638">
        <ele>331.269</ele>
        <time>2022-01-29T11:39:52Z</time>
      </trkpt>
      <trkpt lat="44.46468" lon="4.96657">
        <ele>331.708</ele>
        <time>2022-01-29T11:39:58Z</time>
      </trkpt>
      <trkpt lat="44.46491" lon="4.9676">
        <ele>337.257</ele>
        <time>2022-01-29T11:40:30Z</time>
      </trkpt>
      <trkpt lat="44.46497" lon="4.96828">
        <ele>341.795</ele>
        <time>2022-01-29T11:40:50Z</time>
      </trkpt>
      <trkpt lat="44.46497" lon="4.96939">
        <ele>344.807</ele>
        <time>2022-01-29T11:41:22Z</time>
      </trkpt>
      <trkpt lat="44.46495" lon="4.96953">
        <ele>345.205</ele>
        <time>2022-01-29T11:41:26Z</time>
      </trkpt>
      <trkpt lat="44.46498" lon="4.96995">
        <ele>346.347</ele>
        <time>2022-01-29T11:41:37Z</time>
      </trkpt>
      <trkpt lat="44.46505" lon="4.97014">
        <ele>346.928</ele>
        <time>2022-01-29T11:41:43Z</time>
      </trkpt>
      <trkpt lat="44.46506" lon="4.97025">
        <ele>347.209</ele>
        <time>2022-01-29T11:41:46Z</time>
      </trkpt>
      <trkpt lat="44.46503" lon="4.97073">
        <ele>348.457</ele>
        <time>2022-01-29T11:41:58Z</time>
      </trkpt>
      <trkpt lat="44.46506" lon="4.97093">
        <ele>349.265</ele>
        <time>2022-01-29T11:42:03Z</time>
      </trkpt>
      <trkpt lat="44.46515" lon="4.97114">
        <ele>350.32</ele>
        <time>2022-01-29T11:42:10Z</time>
      </trkpt>
      <trkpt lat="44.46539" lon="4.97152">
        <ele>352.637</ele>
        <time>2022-01-29T11:42:23Z</time>
      </trkpt>
      <trkpt lat="44.46548" lon="4.97162">
        <ele>353.318</ele>
        <time>2022-01-29T11:42:27Z</time>
      </trkpt>
      <trkpt lat="44.46567" lon="4.97175">
        <ele>354.398</ele>
        <time>2022-01-29T11:42:35Z</time>
      </trkpt>
      <trkpt lat="44.46594" lon="4.97188">
        <ele>355.198</ele>
        <time>2022-01-29T11:42:45Z</time>
      </trkpt>
      <trkpt lat="44.46619" lon="4.97188">
        <ele>355.593</ele>
        <time>2022-01-29T11:42:54Z</time>
      </trkpt>
      <trkpt lat="44.46699" lon="4.97201">
        <ele>358.654</ele>
        <time>2022-01-29T11:43:23Z</time>
      </trkpt>
      <trkpt lat="44.46758" lon="4.97221">
        <ele>362.768</ele>
        <time>2022-01-29T11:43:45Z</time>
      </trkpt>
      <trkpt lat="44.46775" lon="4.9723">
        <ele>364.23</ele>
        <time>2022-01-29T11:43:52Z</time>
      </trkpt>
      <trkpt lat="44.46781" lon="4.97237">
        <ele>364.792</ele>
        <time>2022-01-29T11:43:57Z</time>
      </trkpt>
      <trkpt lat="44.46779" lon="4.9726">
        <ele>363.363</ele>
        <time>2022-01-29T11:44:48Z</time>
      </trkpt>
      <trkpt lat="44.46795" lon="4.97287">
        <ele>363.709</ele>
        <time>2022-01-29T11:44:55Z</time>
      </trkpt>
      <trkpt lat="44.46794" lon="4.973">
        <ele>362.893</ele>
        <time>2022-01-29T11:44:57Z</time>
      </trkpt>
      <trkpt lat="44.46789" lon="4.97307">
        <ele>362.345</ele>
        <time>2022-01-29T11:44:59Z</time>
      </trkpt>
      <trkpt lat="44.46767" lon="4.97319">
        <ele>361.052</ele>
        <time>2022-01-29T11:45:07Z</time>
      </trkpt>
      <trkpt lat="44.46756" lon="4.97331">
        <ele>361.013</ele>
        <time>2022-01-29T11:45:12Z</time>
      </trkpt>
      <trkpt lat="44.46741" lon="4.97356">
        <ele>361.408</ele>
        <time>2022-01-29T11:45:20Z</time>
      </trkpt>
      <trkpt lat="44.46736" lon="4.97373">
        <ele>361.734</ele>
        <time>2022-01-29T11:45:25Z</time>
      </trkpt>
      <trkpt lat="44.46732" lon="4.97431">
        <ele>364.545</ele>
        <time>2022-01-29T11:45:40Z</time>
      </trkpt>
      <trkpt lat="44.46721" lon="4.97481">
        <ele>364.961</ele>
        <time>2022-01-29T11:45:53Z</time>
      </trkpt>
      <trkpt lat="44.46718" lon="4.9754">
        <ele>366.703</ele>
        <time>2022-01-29T11:46:07Z</time>
      </trkpt>
      <trkpt lat="44.46714" lon="4.9757">
        <ele>367.025</ele>
        <time>2022-01-29T11:46:14Z</time>
      </trkpt>
      <trkpt lat="44.46697" lon="4.97641">
        <ele>367.021</ele>
        <time>2022-01-29T11:46:33Z</time>
      </trkpt>
      <trkpt lat="44.46668" lon="4.97703">
        <ele>366.311</ele>
        <time>2022-01-29T11:46:50Z</time>
      </trkpt>
      <trkpt lat="44.46661" lon="4.97726">
        <ele>366.654</ele>
        <time>2022-01-29T11:46:55Z</time>
      </trkpt>
      <trkpt lat="44.46652" lon="4.97766">
        <ele>367.38</ele>
        <time>2022-01-29T11:47:02Z</time>
      </trkpt>
      <trkpt lat="44.46646" lon="4.97782">
        <ele>367.435</ele>
        <time>2022-01-29T11:47:05Z</time>
      </trkpt>
      <trkpt lat="44.46595" lon="4.97855">
        <ele>362.16</ele>
        <time>2022-01-29T11:47:23Z</time>
      </trkpt>
      <trkpt lat="44.46596" lon="4.97867">
        <ele>362.324</ele>
        <time>2022-01-29T11:47:25Z</time>
      </trkpt>
      <trkpt lat="44.46603" lon="4.97883">
        <ele>363.544</ele>
        <time>2022-01-29T11:47:28Z</time>
      </trkpt>
      <trkpt lat="44.46601" lon="4.97893">
        <ele>363.907</ele>
        <time>2022-01-29T11:47:30Z</time>
      </trkpt>
      <trkpt lat="44.46598" lon="4.97896">
        <ele>363.842</ele>
        <time>2022-01-29T11:47:31Z</time>
      </trkpt>
      <trkpt lat="44.46583" lon="4.979">
        <ele>362.76</ele>
        <time>2022-01-29T11:47:36Z</time>
      </trkpt>
      <trkpt lat="44.46568" lon="4.97918">
        <ele>362.231</ele>
        <time>2022-01-29T11:47:43Z</time>
      </trkpt>
      <trkpt lat="44.46554" lon="4.97956">
        <ele>363.829</ele>
        <time>2022-01-29T11:47:54Z</time>
      </trkpt>
      <trkpt lat="44.46554" lon="4.97967">
        <ele>364.441</ele>
        <time>2022-01-29T11:47:56Z</time>
      </trkpt>
      <trkpt lat="44.46579" lon="4.98004">
        <ele>367.633</ele>
        <time>2022-01-29T11:48:08Z</time>
      </trkpt>
      <trkpt lat="44.46601" lon="4.9802">
        <ele>368.541</ele>
        <time>2022-01-29T11:48:15Z</time>
      </trkpt>
      <trkpt lat="44.46605" lon="4.98028">
        <ele>368.308</ele>
        <time>2022-01-29T11:48:17Z</time>
      </trkpt>
      <trkpt lat="44.46604" lon="4.98038">
        <ele>367.649</ele>
        <time>2022-01-29T11:48:20Z</time>
      </trkpt>
      <trkpt lat="44.46592" lon="4.98068">
        <ele>369.882</ele>
        <time>2022-01-29T11:48:33Z</time>
      </trkpt>
      <trkpt lat="44.46585" lon="4.98077">
        <ele>370.993</ele>
        <time>2022-01-29T11:48:46Z</time>
      </trkpt>
      <trkpt lat="44.46576" lon="4.98077">
        <ele>370.794</ele>
        <time>2022-01-29T11:49:06Z</time>
      </trkpt>
      <trkpt lat="44.46583" lon="4.98072">
        <ele>370.26</ele>
        <time>2022-01-29T11:49:10Z</time>
      </trkpt>
      <trkpt lat="44.46594" lon="4.98082">
        <ele>372.003</ele>
        <time>2022-01-29T11:49:16Z</time>
      </trkpt>
      <trkpt lat="44.46612" lon="4.98085">
        <ele>372.678</ele>
        <time>2022-01-29T11:49:23Z</time>
      </trkpt>
      <trkpt lat="44.46658" lon="4.98104">
        <ele>374.592</ele>
        <time>2022-01-29T11:49:40Z</time>
      </trkpt>
      <trkpt lat="44.46692" lon="4.98134">
        <ele>377.997</ele>
        <time>2022-01-29T11:49:54Z</time>
      </trkpt>
      <trkpt lat="44.46705" lon="4.98152">
        <ele>379.564</ele>
        <time>2022-01-29T11:50:03Z</time>
      </trkpt>
      <trkpt lat="44.46729" lon="4.9822">
        <ele>379.561</ele>
        <time>2022-01-29T11:50:24Z</time>
      </trkpt>
      <trkpt lat="44.46737" lon="4.98236">
        <ele>379.75</ele>
        <time>2022-01-29T11:50:29Z</time>
      </trkpt>
      <trkpt lat="44.46764" lon="4.98273">
        <ele>380.8</ele>
        <time>2022-01-29T11:50:43Z</time>
      </trkpt>
      <trkpt lat="44.46798" lon="4.98364">
        <ele>389.841</ele>
        <time>2022-01-29T11:51:12Z</time>
      </trkpt>
      <trkpt lat="44.4681" lon="4.98387">
        <ele>393.569</ele>
        <time>2022-01-29T11:51:19Z</time>
      </trkpt>
      <trkpt lat="44.46818" lon="4.98414">
        <ele>394.875</ele>
        <time>2022-01-29T11:51:28Z</time>
      </trkpt>
      <trkpt lat="44.46819" lon="4.98434">
        <ele>394.818</ele>
        <time>2022-01-29T11:51:33Z</time>
      </trkpt>
      <trkpt lat="44.46833" lon="4.98512">
        <ele>400.945</ele>
        <time>2022-01-29T11:51:55Z</time>
      </trkpt>
      <trkpt lat="44.46834" lon="4.98582">
        <ele>402.661</ele>
        <time>2022-01-29T11:52:13Z</time>
      </trkpt>
      <trkpt lat="44.46837" lon="4.98606">
        <ele>402.898</ele>
        <time>2022-01-29T11:52:20Z</time>
      </trkpt>
      <trkpt lat="44.4685" lon="4.98623">
        <ele>404.383</ele>
        <time>2022-01-29T11:52:51Z</time>
      </trkpt>
      <trkpt lat="44.46873" lon="4.98664">
        <ele>409.062</ele>
        <time>2022-01-29T11:53:05Z</time>
      </trkpt>
      <trkpt lat="44.46912" lon="4.98705">
        <ele>413.396</ele>
        <time>2022-01-29T11:53:22Z</time>
      </trkpt>
      <trkpt lat="44.46935" lon="4.98733">
        <ele>414.98</ele>
        <time>2022-01-29T11:53:33Z</time>
      </trkpt>
      <trkpt lat="44.46949" lon="4.9876">
        <ele>411.84</ele>
        <time>2022-01-29T11:53:43Z</time>
      </trkpt>
      <trkpt lat="44.46964" lon="4.98775">
        <ele>417.322</ele>
        <time>2022-01-29T11:53:50Z</time>
      </trkpt>
      <trkpt lat="44.46976" lon="4.98792">
        <ele>419.668</ele>
        <time>2022-01-29T11:53:58Z</time>
      </trkpt>
      <trkpt lat="44.46995" lon="4.98812">
        <ele>418.948</ele>
        <time>2022-01-29T11:54:06Z</time>
      </trkpt>
      <trkpt lat="44.47039" lon="4.98838">
        <ele>422.597</ele>
        <time>2022-01-29T11:54:25Z</time>
      </trkpt>
      <trkpt lat="44.47046" lon="4.9885">
        <ele>424.428</ele>
        <time>2022-01-29T11:54:30Z</time>
      </trkpt>
      <trkpt lat="44.47061" lon="4.98866">
        <ele>425.325</ele>
        <time>2022-01-29T11:54:39Z</time>
      </trkpt>
      <trkpt lat="44.47081" lon="4.98879">
        <ele>423.175</ele>
        <time>2022-01-29T11:54:47Z</time>
      </trkpt>
      <trkpt lat="44.47148" lon="4.98961">
        <ele>434.065</ele>
        <time>2022-01-29T11:55:23Z</time>
      </trkpt>
      <trkpt lat="44.47166" lon="4.98975">
        <ele>437.986</ele>
        <time>2022-01-29T11:55:33Z</time>
      </trkpt>
      <trkpt lat="44.47181" lon="4.98992">
        <ele>441.264</ele>
        <time>2022-01-29T11:56:32Z</time>
      </trkpt>
      <trkpt lat="44.47266" lon="4.99065">
        <ele>450.005</ele>
        <time>2022-01-29T11:59:11Z</time>
      </trkpt>
      <trkpt lat="44.47296" lon="4.99097">
        <ele>453.034</ele>
        <time>2022-01-29T11:59:28Z</time>
      </trkpt>
      <trkpt lat="44.47357" lon="4.99172">
        <ele>466.176</ele>
        <time>2022-01-29T12:00:05Z</time>
      </trkpt>
      <trkpt lat="44.47369" lon="4.99196">
        <ele>469.205</ele>
        <time>2022-01-29T12:00:15Z</time>
      </trkpt>
      <trkpt lat="44.47392" lon="4.99248">
        <ele>473.925</ele>
        <time>2022-01-29T12:00:34Z</time>
      </trkpt>
      <trkpt lat="44.47398" lon="4.99275">
        <ele>475.561</ele>
        <time>2022-01-29T12:00:42Z</time>
      </trkpt>
      <trkpt lat="44.47402" lon="4.99313">
        <ele>480.188</ele>
        <time>2022-01-29T12:00:54Z</time>
      </trkpt>
      <trkpt lat="44.47401" lon="4.99357">
        <ele>483.23</ele>
        <time>2022-01-29T12:01:28Z</time>
      </trkpt>
      <trkpt lat="44.47395" lon="4.99401">
        <ele>482.749</ele>
        <time>2022-01-29T12:02:06Z</time>
      </trkpt>
      <trkpt lat="44.47394" lon="4.99441">
        <ele>481.592</ele>
        <time>2022-01-29T12:03:48Z</time>
      </trkpt>
      <trkpt lat="44.474" lon="4.99478">
        <ele>484.233</ele>
        <time>2022-01-29T12:04:02Z</time>
      </trkpt>
      <trkpt lat="44.47417" lon="4.99521">
        <ele>486.508</ele>
        <time>2022-01-29T12:04:16Z</time>
      </trkpt>
      <trkpt lat="44.47433" lon="4.99539">
        <ele>489.002</ele>
        <time>2022-01-29T12:04:24Z</time>
      </trkpt>
      <trkpt lat="44.47525" lon="4.99576">
        <ele>505.636</ele>
        <time>2022-01-29T12:06:19Z</time>
      </trkpt>
      <trkpt lat="44.47567" lon="4.99589">
        <ele>509.198</ele>
        <time>2022-01-29T12:06:40Z</time>
      </trkpt>
      <trkpt lat="44.4764" lon="4.99621">
        <ele>522.612</ele>
        <time>2022-01-29T12:07:16Z</time>
      </trkpt>
      <trkpt lat="44.47661" lon="4.99616">
        <ele>526.667</ele>
        <time>2022-01-29T12:07:28Z</time>
      </trkpt>
      <trkpt lat="44.47695" lon="4.99626">
        <ele>533.532</ele>
        <time>2022-01-29T12:07:46Z</time>
      </trkpt>
      <trkpt lat="44.47729" lon="4.99651">
        <ele>539.612</ele>
        <time>2022-01-29T12:08:02Z</time>
      </trkpt>
      <trkpt lat="44.47775" lon="4.99669">
        <ele>543.898</ele>
        <time>2022-01-29T12:08:24Z</time>
      </trkpt>
      <trkpt lat="44.47798" lon="4.99673">
        <ele>546.567</ele>
        <time>2022-01-29T12:08:33Z</time>
      </trkpt>
      <trkpt lat="44.47831" lon="4.99672">
        <ele>552.773</ele>
        <time>2022-01-29T12:08:48Z</time>
      </trkpt>
      <trkpt lat="44.4785" lon="4.99675">
        <ele>553.966</ele>
        <time>2022-01-29T12:08:55Z</time>
      </trkpt>
      <trkpt lat="44.47862" lon="4.99674">
        <ele>556.157</ele>
        <time>2022-01-29T12:09:01Z</time>
      </trkpt>
      <trkpt lat="44.47875" lon="4.99679">
        <ele>556.032</ele>
        <time>2022-01-29T12:09:07Z</time>
      </trkpt>
      <trkpt lat="44.47886" lon="4.99679">
        <ele>558.107</ele>
        <time>2022-01-29T12:09:13Z</time>
      </trkpt>
      <trkpt lat="44.47926" lon="4.99693">
        <ele>567.129</ele>
        <time>2022-01-29T12:09:32Z</time>
      </trkpt>
      <trkpt lat="44.47941" lon="4.99694">
        <ele>570.415</ele>
        <time>2022-01-29T12:09:38Z</time>
      </trkpt>
      <trkpt lat="44.47963" lon="4.99707">
        <ele>573.312</ele>
        <time>2022-01-29T12:09:48Z</time>
      </trkpt>
      <trkpt lat="44.47996" lon="4.99742">
        <ele>573.579</ele>
        <time>2022-01-29T12:10:07Z</time>
      </trkpt>
      <trkpt lat="44.48107" lon="4.99835">
        <ele>591.693</ele>
        <time>2022-01-29T12:11:05Z</time>
      </trkpt>
      <trkpt lat="44.48117" lon="4.99837">
        <ele>594.55</ele>
        <time>2022-01-29T12:11:09Z</time>
      </trkpt>
      <trkpt lat="44.4813" lon="4.99846">
        <ele>596.255</ele>
        <time>2022-01-29T12:11:15Z</time>
      </trkpt>
      <trkpt lat="44.48135" lon="4.99863">
        <ele>592.651</ele>
        <time>2022-01-29T12:35:22Z</time>
      </trkpt>
      <trkpt lat="44.48136" lon="4.9986">
        <ele>593.567</ele>
        <time>2022-01-29T12:35:30Z</time>
      </trkpt>
      <trkpt lat="44.48145" lon="4.99867">
        <ele>594.135</ele>
        <time>2022-01-29T12:35:52Z</time>
      </trkpt>
      <trkpt lat="44.48149" lon="4.99879">
        <ele>591.732</ele>
        <time>2022-01-29T12:36:10Z</time>
      </trkpt>
      <trkpt lat="44.48187" lon="4.99904">
        <ele>602.549</ele>
        <time>2022-01-29T12:37:56Z</time>
      </trkpt>
      <trkpt lat="44.48191" lon="4.99909">
        <ele>603.349</ele>
        <time>2022-01-29T12:38:02Z</time>
      </trkpt>
      <trkpt lat="44.48181" lon="4.99908">
        <ele>600.661</ele>
        <time>2022-01-29T12:38:14Z</time>
      </trkpt>
      <trkpt lat="44.48178" lon="4.99917">
        <ele>599.647</ele>
        <time>2022-01-29T12:38:23Z</time>
      </trkpt>
      <trkpt lat="44.48167" lon="4.99924">
        <ele>596.301</ele>
        <time>2022-01-29T12:38:43Z</time>
      </trkpt>
      <trkpt lat="44.48165" lon="4.99928">
        <ele>595.957</ele>
        <time>2022-01-29T12:38:46Z</time>
      </trkpt>
      <trkpt lat="44.48154" lon="4.99931">
        <ele>592.579</ele>
        <time>2022-01-29T12:38:54Z</time>
      </trkpt>
      <trkpt lat="44.48139" lon="4.99918">
        <ele>588.173</ele>
        <time>2022-01-29T12:39:04Z</time>
      </trkpt>
      <trkpt lat="44.48141" lon="4.99917">
        <ele>588.544</ele>
        <time>2022-01-29T12:39:08Z</time>
      </trkpt>
      <trkpt lat="44.48135" lon="4.99914">
        <ele>586.853</ele>
        <time>2022-01-29T12:39:14Z</time>
      </trkpt>
      <trkpt lat="44.48125" lon="4.99923">
        <ele>585.246</ele>
        <time>2022-01-29T12:39:19Z</time>
      </trkpt>
      <trkpt lat="44.48117" lon="4.99943">
        <ele>584.307</ele>
        <time>2022-01-29T12:39:24Z</time>
      </trkpt>
      <trkpt lat="44.48117" lon="4.99962">
        <ele>585.983</ele>
        <time>2022-01-29T12:39:28Z</time>
      </trkpt>
      <trkpt lat="44.48111" lon="4.9997">
        <ele>586.097</ele>
        <time>2022-01-29T12:39:33Z</time>
      </trkpt>
      <trkpt lat="44.4811" lon="4.99962">
        <ele>585.163</ele>
        <time>2022-01-29T12:39:40Z</time>
      </trkpt>
      <trkpt lat="44.48104" lon="4.99957">
        <ele>584.014</ele>
        <time>2022-01-29T12:39:46Z</time>
      </trkpt>
      <trkpt lat="44.48098" lon="4.99935">
        <ele>581.026</ele>
        <time>2022-01-29T12:39:56Z</time>
      </trkpt>
      <trkpt lat="44.48088" lon="4.99923">
        <ele>579.598</ele>
        <time>2022-01-29T12:40:01Z</time>
      </trkpt>
      <trkpt lat="44.48086" lon="4.99905">
        <ele>579.25</ele>
        <time>2022-01-29T12:40:06Z</time>
      </trkpt>
      <trkpt lat="44.48081" lon="4.99899">
        <ele>579.611</ele>
        <time>2022-01-29T12:40:09Z</time>
      </trkpt>
      <trkpt lat="44.48018" lon="4.99852">
        <ele>581.553</ele>
        <time>2022-01-29T12:40:35Z</time>
      </trkpt>
      <trkpt lat="44.48011" lon="4.99836">
        <ele>578.456</ele>
        <time>2022-01-29T12:40:44Z</time>
      </trkpt>
      <trkpt lat="44.48004" lon="4.99833">
        <ele>577.976</ele>
        <time>2022-01-29T12:40:48Z</time>
      </trkpt>
      <trkpt lat="44.47993" lon="4.9982">
        <ele>577.409</ele>
        <time>2022-01-29T12:40:54Z</time>
      </trkpt>
      <trkpt lat="44.47974" lon="4.99807">
        <ele>580.382</ele>
        <time>2022-01-29T12:40:58Z</time>
      </trkpt>
      <trkpt lat="44.47952" lon="4.99783">
        <ele>579.56</ele>
        <time>2022-01-29T12:41:04Z</time>
      </trkpt>
      <trkpt lat="44.47935" lon="4.99771">
        <ele>579.264</ele>
        <time>2022-01-29T12:41:07Z</time>
      </trkpt>
      <trkpt lat="44.4793" lon="4.99763">
        <ele>577.855</ele>
        <time>2022-01-29T12:41:09Z</time>
      </trkpt>
      <trkpt lat="44.4792" lon="4.99755">
        <ele>577.517</ele>
        <time>2022-01-29T12:41:12Z</time>
      </trkpt>
      <trkpt lat="44.4788" lon="4.99751">
        <ele>576.732</ele>
        <time>2022-01-29T12:41:22Z</time>
      </trkpt>
      <trkpt lat="44.47876" lon="4.99747">
        <ele>575.64</ele>
        <time>2022-01-29T12:41:25Z</time>
      </trkpt>
      <trkpt lat="44.47877" lon="4.99741">
        <ele>573.73</ele>
        <time>2022-01-29T12:41:29Z</time>
      </trkpt>
      <trkpt lat="44.47873" lon="4.99737">
        <ele>572.57</ele>
        <time>2022-01-29T12:41:47Z</time>
      </trkpt>
      <trkpt lat="44.47859" lon="4.99746">
        <ele>573.591</ele>
        <time>2022-01-29T12:42:01Z</time>
      </trkpt>
      <trkpt lat="44.47847" lon="4.99746">
        <ele>571.67</ele>
        <time>2022-01-29T12:42:07Z</time>
      </trkpt>
      <trkpt lat="44.47805" lon="4.99756">
        <ele>568.963</ele>
        <time>2022-01-29T12:42:17Z</time>
      </trkpt>
      <trkpt lat="44.47782" lon="4.99756">
        <ele>565.855</ele>
        <time>2022-01-29T12:42:22Z</time>
      </trkpt>
      <trkpt lat="44.47772" lon="4.99753">
        <ele>564.083</ele>
        <time>2022-01-29T12:42:25Z</time>
      </trkpt>
      <trkpt lat="44.47738" lon="4.99752">
        <ele>562.041</ele>
        <time>2022-01-29T12:42:32Z</time>
      </trkpt>
      <trkpt lat="44.477" lon="4.99743">
        <ele>556.134</ele>
        <time>2022-01-29T12:42:44Z</time>
      </trkpt>
      <trkpt lat="44.47684" lon="4.99733">
        <ele>551.306</ele>
        <time>2022-01-29T12:47:35Z</time>
      </trkpt>
      <trkpt lat="44.47671" lon="4.99709">
        <ele>542.891</ele>
        <time>2022-01-29T12:47:37Z</time>
      </trkpt>
      <trkpt lat="44.47674" lon="4.99703">
        <ele>541.229</ele>
        <time>2022-01-29T12:47:41Z</time>
      </trkpt>
      <trkpt lat="44.4761" lon="4.99703">
        <ele>535.513</ele>
        <time>2022-01-29T12:48:43Z</time>
      </trkpt>
      <trkpt lat="44.4756" lon="4.9969">
        <ele>531.47</ele>
        <time>2022-01-29T12:49:18Z</time>
      </trkpt>
      <trkpt lat="44.47529" lon="4.99668">
        <ele>524.22</ele>
        <time>2022-01-29T12:49:32Z</time>
      </trkpt>
      <trkpt lat="44.47506" lon="4.99661">
        <ele>522.378</ele>
        <time>2022-01-29T12:49:38Z</time>
      </trkpt>
      <trkpt lat="44.47459" lon="4.99654">
        <ele>519.6</ele>
        <time>2022-01-29T12:49:49Z</time>
      </trkpt>
      <trkpt lat="44.47405" lon="4.99634">
        <ele>517.083</ele>
        <time>2022-01-29T12:50:01Z</time>
      </trkpt>
      <trkpt lat="44.4737" lon="4.99616">
        <ele>517.899</ele>
        <time>2022-01-29T12:50:08Z</time>
      </trkpt>
      <trkpt lat="44.4734" lon="4.9959">
        <ele>517.066</ele>
        <time>2022-01-29T12:50:14Z</time>
      </trkpt>
      <trkpt lat="44.47324" lon="4.99568">
        <ele>516.049</ele>
        <time>2022-01-29T12:50:18Z</time>
      </trkpt>
      <trkpt lat="44.47299" lon="4.99513">
        <ele>513.003</ele>
        <time>2022-01-29T12:50:27Z</time>
      </trkpt>
      <trkpt lat="44.47285" lon="4.9947">
        <ele>511.374</ele>
        <time>2022-01-29T12:50:36Z</time>
      </trkpt>
      <trkpt lat="44.47281" lon="4.99446">
        <ele>509.19</ele>
        <time>2022-01-29T12:50:39Z</time>
      </trkpt>
      <trkpt lat="44.47257" lon="4.99344">
        <ele>502.189</ele>
        <time>2022-01-29T12:51:07Z</time>
      </trkpt>
      <trkpt lat="44.47219" lon="4.99281">
        <ele>499.521</ele>
        <time>2022-01-29T12:51:18Z</time>
      </trkpt>
      <trkpt lat="44.47158" lon="4.99202">
        <ele>492.189</ele>
        <time>2022-01-29T12:51:33Z</time>
      </trkpt>
      <trkpt lat="44.47131" lon="4.9918">
        <ele>489.535</ele>
        <time>2022-01-29T12:51:40Z</time>
      </trkpt>
      <trkpt lat="44.47108" lon="4.99157">
        <ele>486.515</ele>
        <time>2022-01-29T12:51:45Z</time>
      </trkpt>
      <trkpt lat="44.47094" lon="4.99147">
        <ele>484.977</ele>
        <time>2022-01-29T12:51:48Z</time>
      </trkpt>
      <trkpt lat="44.4708" lon="4.99141">
        <ele>484.225</ele>
        <time>2022-01-29T12:51:51Z</time>
      </trkpt>
      <trkpt lat="44.47059" lon="4.99139">
        <ele>481.967</ele>
        <time>2022-01-29T12:51:56Z</time>
      </trkpt>
      <trkpt lat="44.4705" lon="4.99142">
        <ele>481.085</ele>
        <time>2022-01-29T12:52:00Z</time>
      </trkpt>
      <trkpt lat="44.47022" lon="4.99124">
        <ele>478.021</ele>
        <time>2022-01-29T12:52:09Z</time>
      </trkpt>
      <trkpt lat="44.47003" lon="4.99095">
        <ele>479.11</ele>
        <time>2022-01-29T12:52:20Z</time>
      </trkpt>
      <trkpt lat="44.46979" lon="4.99091">
        <ele>479.647</ele>
        <time>2022-01-29T12:52:29Z</time>
      </trkpt>
      <trkpt lat="44.46958" lon="4.99083">
        <ele>476.302</ele>
        <time>2022-01-29T12:52:35Z</time>
      </trkpt>
      <trkpt lat="44.46951" lon="4.99076">
        <ele>475.369</ele>
        <time>2022-01-29T12:52:37Z</time>
      </trkpt>
      <trkpt lat="44.46934" lon="4.9905">
        <ele>472.502</ele>
        <time>2022-01-29T12:52:43Z</time>
      </trkpt>
      <trkpt lat="44.46911" lon="4.98992">
        <ele>467.589</ele>
        <time>2022-01-29T12:52:54Z</time>
      </trkpt>
      <trkpt lat="44.46892" lon="4.98974">
        <ele>464.17</ele>
        <time>2022-01-29T12:53:01Z</time>
      </trkpt>
      <trkpt lat="44.46855" lon="4.98912">
        <ele>456.112</ele>
        <time>2022-01-29T12:53:24Z</time>
      </trkpt>
      <trkpt lat="44.46839" lon="4.98866">
        <ele>450.843</ele>
        <time>2022-01-29T12:53:39Z</time>
      </trkpt>
      <trkpt lat="44.46816" lon="4.98839">
        <ele>446.099</ele>
        <time>2022-01-29T12:53:50Z</time>
      </trkpt>
      <trkpt lat="44.46794" lon="4.98808">
        <ele>442.762</ele>
        <time>2022-01-29T12:53:57Z</time>
      </trkpt>
      <trkpt lat="44.46778" lon="4.9879">
        <ele>440.954</ele>
        <time>2022-01-29T12:54:04Z</time>
      </trkpt>
      <trkpt lat="44.46763" lon="4.98765">
        <ele>440.064</ele>
        <time>2022-01-29T12:54:10Z</time>
      </trkpt>
      <trkpt lat="44.46755" lon="4.98741">
        <ele>439.526</ele>
        <time>2022-01-29T12:54:14Z</time>
      </trkpt>
      <trkpt lat="44.46747" lon="4.98725">
        <ele>438.645</ele>
        <time>2022-01-29T12:54:17Z</time>
      </trkpt>
      <trkpt lat="44.46736" lon="4.98695">
        <ele>438.86</ele>
        <time>2022-01-29T12:54:25Z</time>
      </trkpt>
      <trkpt lat="44.46728" lon="4.98683">
        <ele>439.741</ele>
        <time>2022-01-29T12:54:30Z</time>
      </trkpt>
      <trkpt lat="44.46665" lon="4.98634">
        <ele>433.096</ele>
        <time>2022-01-29T12:54:53Z</time>
      </trkpt>
      <trkpt lat="44.46641" lon="4.98623">
        <ele>428.737</ele>
        <time>2022-01-29T12:55:02Z</time>
      </trkpt>
      <trkpt lat="44.46618" lon="4.98607">
        <ele>425.009</ele>
        <time>2022-01-29T12:55:12Z</time>
      </trkpt>
      <trkpt lat="44.46584" lon="4.98609">
        <ele>420.912</ele>
        <time>2022-01-29T12:55:25Z</time>
      </trkpt>
      <trkpt lat="44.46535" lon="4.9859">
        <ele>414.156</ele>
        <time>2022-01-29T12:55:40Z</time>
      </trkpt>
      <trkpt lat="44.46524" lon="4.98589">
        <ele>412.135</ele>
        <time>2022-01-29T12:55:44Z</time>
      </trkpt>
      <trkpt lat="44.46503" lon="4.98594">
        <ele>408.088</ele>
        <time>2022-01-29T12:55:52Z</time>
      </trkpt>
      <trkpt lat="44.46487" lon="4.98604">
        <ele>404.313</ele>
        <time>2022-01-29T12:56:29Z</time>
      </trkpt>
      <trkpt lat="44.46483" lon="4.98624">
        <ele>402.126</ele>
        <time>2022-01-29T12:56:39Z</time>
      </trkpt>
      <trkpt lat="44.46531" lon="4.98655">
        <ele>407.09</ele>
        <time>2022-01-29T12:57:15Z</time>
      </trkpt>
      <trkpt lat="44.46542" lon="4.98667">
        <ele>406.732</ele>
        <time>2022-01-29T12:57:21Z</time>
      </trkpt>
      <trkpt lat="44.46627" lon="4.98736">
        <ele>420.437</ele>
        <time>2022-01-29T12:58:05Z</time>
      </trkpt>
      <trkpt lat="44.4669" lon="4.98779">
        <ele>430.326</ele>
        <time>2022-01-29T12:58:35Z</time>
      </trkpt>
      <trkpt lat="44.46708" lon="4.98799">
        <ele>431.26</ele>
        <time>2022-01-29T12:58:45Z</time>
      </trkpt>
      <trkpt lat="44.46747" lon="4.98834">
        <ele>437.781</ele>
        <time>2022-01-29T12:59:03Z</time>
      </trkpt>
      <trkpt lat="44.46763" lon="4.98857">
        <ele>439.221</ele>
        <time>2022-01-29T12:59:17Z</time>
      </trkpt>
      <trkpt lat="44.46792" lon="4.98908">
        <ele>446.199</ele>
        <time>2022-01-29T12:59:32Z</time>
      </trkpt>
      <trkpt lat="44.4681" lon="4.98951">
        <ele>448.758</ele>
        <time>2022-01-29T12:59:49Z</time>
      </trkpt>
      <trkpt lat="44.46826" lon="4.98976">
        <ele>452.182</ele>
        <time>2022-01-29T12:59:57Z</time>
      </trkpt>
      <trkpt lat="44.46827" lon="4.98986">
        <ele>452.438</ele>
        <time>2022-01-29T13:00:01Z</time>
      </trkpt>
      <trkpt lat="44.46823" lon="4.98994">
        <ele>452.148</ele>
        <time>2022-01-29T13:00:05Z</time>
      </trkpt>
      <trkpt lat="44.4682" lon="4.98995">
        <ele>451.844</ele>
        <time>2022-01-29T13:00:07Z</time>
      </trkpt>
      <trkpt lat="44.4681" lon="4.98984">
        <ele>450.37</ele>
        <time>2022-01-29T13:00:12Z</time>
      </trkpt>
      <trkpt lat="44.46766" lon="4.98904">
        <ele>443.913</ele>
        <time>2022-01-29T13:00:31Z</time>
      </trkpt>
      <trkpt lat="44.46745" lon="4.9887">
        <ele>439.798</ele>
        <time>2022-01-29T13:00:41Z</time>
      </trkpt>
      <trkpt lat="44.46698" lon="4.98829">
        <ele>433.859</ele>
        <time>2022-01-29T13:00:56Z</time>
      </trkpt>
      <trkpt lat="44.46669" lon="4.98816">
        <ele>430.461</ele>
        <time>2022-01-29T13:01:03Z</time>
      </trkpt>
      <trkpt lat="44.4663" lon="4.98785">
        <ele>427.036</ele>
        <time>2022-01-29T13:01:14Z</time>
      </trkpt>
      <trkpt lat="44.46583" lon="4.98764">
        <ele>423.79</ele>
        <time>2022-01-29T13:01:27Z</time>
      </trkpt>
      <trkpt lat="44.46569" lon="4.98767">
        <ele>423.636</ele>
        <time>2022-01-29T13:01:31Z</time>
      </trkpt>
      <trkpt lat="44.46541" lon="4.98782">
        <ele>424.942</ele>
        <time>2022-01-29T13:01:38Z</time>
      </trkpt>
      <trkpt lat="44.46506" lon="4.98817">
        <ele>424.247</ele>
        <time>2022-01-29T13:01:51Z</time>
      </trkpt>
      <trkpt lat="44.46493" lon="4.98843">
        <ele>423.289</ele>
        <time>2022-01-29T13:02:00Z</time>
      </trkpt>
      <trkpt lat="44.46487" lon="4.98866">
        <ele>422.341</ele>
        <time>2022-01-29T13:02:09Z</time>
      </trkpt>
      <trkpt lat="44.46485" lon="4.98898">
        <ele>421.211</ele>
        <time>2022-01-29T13:02:19Z</time>
      </trkpt>
      <trkpt lat="44.46489" lon="4.98913">
        <ele>421.393</ele>
        <time>2022-01-29T13:02:26Z</time>
      </trkpt>
      <trkpt lat="44.46499" lon="4.98935">
        <ele>423.733</ele>
        <time>2022-01-29T13:02:34Z</time>
      </trkpt>
      <trkpt lat="44.46516" lon="4.98957">
        <ele>427.178</ele>
        <time>2022-01-29T13:02:47Z</time>
      </trkpt>
      <trkpt lat="44.46524" lon="4.9898">
        <ele>427.824</ele>
        <time>2022-01-29T13:02:53Z</time>
      </trkpt>
      <trkpt lat="44.46524" lon="4.98993">
        <ele>427.994</ele>
        <time>2022-01-29T13:03:15Z</time>
      </trkpt>
      <trkpt lat="44.46514" lon="4.98989">
        <ele>427.577</ele>
        <time>2022-01-29T13:03:20Z</time>
      </trkpt>
      <trkpt lat="44.46487" lon="4.98962">
        <ele>424.471</ele>
        <time>2022-01-29T13:03:26Z</time>
      </trkpt>
      <trkpt lat="44.46453" lon="4.98937">
        <ele>417.893</ele>
        <time>2022-01-29T13:03:34Z</time>
      </trkpt>
      <trkpt lat="44.46402" lon="4.98918">
        <ele>411.608</ele>
        <time>2022-01-29T13:03:50Z</time>
      </trkpt>
      <trkpt lat="44.46392" lon="4.98932">
        <ele>412.62</ele>
        <time>2022-01-29T13:04:10Z</time>
      </trkpt>
      <trkpt lat="44.46389" lon="4.98944">
        <ele>413.61</ele>
        <time>2022-01-29T13:04:16Z</time>
      </trkpt>
      <trkpt lat="44.46386" lon="4.98947">
        <ele>413.687</ele>
        <time>2022-01-29T13:04:19Z</time>
      </trkpt>
      <trkpt lat="44.46378" lon="4.98968">
        <ele>414.928</ele>
        <time>2022-01-29T13:04:28Z</time>
      </trkpt>
      <trkpt lat="44.4635" lon="4.9903">
        <ele>413.485</ele>
        <time>2022-01-29T13:04:50Z</time>
      </trkpt>
      <trkpt lat="44.46347" lon="4.9905">
        <ele>413.803</ele>
        <time>2022-01-29T13:04:57Z</time>
      </trkpt>
      <trkpt lat="44.46339" lon="4.99069">
        <ele>412.96</ele>
        <time>2022-01-29T13:05:25Z</time>
      </trkpt>
      <trkpt lat="44.46347" lon="4.99064">
        <ele>414.221</ele>
        <time>2022-01-29T13:05:35Z</time>
      </trkpt>
      <trkpt lat="44.46355" lon="4.99068">
        <ele>415.671</ele>
        <time>2022-01-29T13:05:44Z</time>
      </trkpt>
      <trkpt lat="44.46369" lon="4.99087">
        <ele>418.527</ele>
        <time>2022-01-29T13:05:51Z</time>
      </trkpt>
      <trkpt lat="44.46376" lon="4.99102">
        <ele>420.118</ele>
        <time>2022-01-29T13:05:57Z</time>
      </trkpt>
      <trkpt lat="44.46393" lon="4.99121">
        <ele>420.912</ele>
        <time>2022-01-29T13:06:07Z</time>
      </trkpt>
      <trkpt lat="44.46439" lon="4.99126">
        <ele>426.473</ele>
        <time>2022-01-29T13:06:27Z</time>
      </trkpt>
      <trkpt lat="44.46473" lon="4.99119">
        <ele>431.061</ele>
        <time>2022-01-29T13:06:42Z</time>
      </trkpt>
      <trkpt lat="44.46513" lon="4.99129">
        <ele>434.198</ele>
        <time>2022-01-29T13:06:57Z</time>
      </trkpt>
      <trkpt lat="44.46569" lon="4.99156">
        <ele>440.478</ele>
        <time>2022-01-29T13:07:24Z</time>
      </trkpt>
      <trkpt lat="44.46618" lon="4.99196">
        <ele>445.824</ele>
        <time>2022-01-29T13:07:46Z</time>
      </trkpt>
      <trkpt lat="44.46632" lon="4.992">
        <ele>447.532</ele>
        <time>2022-01-29T13:07:51Z</time>
      </trkpt>
      <trkpt lat="44.46647" lon="4.99209">
        <ele>449.521</ele>
        <time>2022-01-29T13:07:58Z</time>
      </trkpt>
      <trkpt lat="44.46682" lon="4.99243">
        <ele>454.863</ele>
        <time>2022-01-29T13:08:14Z</time>
      </trkpt>
      <trkpt lat="44.46735" lon="4.99263">
        <ele>459.585</ele>
        <time>2022-01-29T13:08:39Z</time>
      </trkpt>
      <trkpt lat="44.4676" lon="4.99278">
        <ele>461.796</ele>
        <time>2022-01-29T13:08:53Z</time>
      </trkpt>
      <trkpt lat="44.46776" lon="4.99294">
        <ele>464.122</ele>
        <time>2022-01-29T13:09:03Z</time>
      </trkpt>
      <trkpt lat="44.46801" lon="4.99337">
        <ele>465.636</ele>
        <time>2022-01-29T13:09:19Z</time>
      </trkpt>
      <trkpt lat="44.46832" lon="4.9936">
        <ele>468.402</ele>
        <time>2022-01-29T13:09:34Z</time>
      </trkpt>
      <trkpt lat="44.46901" lon="4.99379">
        <ele>478.229</ele>
        <time>2022-01-29T13:11:23Z</time>
      </trkpt>
      <trkpt lat="44.46912" lon="4.99386">
        <ele>479.379</ele>
        <time>2022-01-29T13:11:28Z</time>
      </trkpt>
      <trkpt lat="44.46928" lon="4.99402">
        <ele>480.824</ele>
        <time>2022-01-29T13:11:36Z</time>
      </trkpt>
      <trkpt lat="44.46954" lon="4.99448">
        <ele>483.88</ele>
        <time>2022-01-29T13:11:54Z</time>
      </trkpt>
      <trkpt lat="44.46975" lon="4.99475">
        <ele>485.028</ele>
        <time>2022-01-29T13:12:08Z</time>
      </trkpt>
      <trkpt lat="44.46998" lon="4.9949">
        <ele>487.452</ele>
        <time>2022-01-29T13:12:20Z</time>
      </trkpt>
      <trkpt lat="44.47018" lon="4.99512">
        <ele>488.672</ele>
        <time>2022-01-29T13:12:32Z</time>
      </trkpt>
      <trkpt lat="44.47022" lon="4.99521">
        <ele>489.83</ele>
        <time>2022-01-29T13:12:36Z</time>
      </trkpt>
      <trkpt lat="44.47024" lon="4.99535">
        <ele>491.067</ele>
        <time>2022-01-29T13:12:41Z</time>
      </trkpt>
      <trkpt lat="44.47017" lon="4.99551">
        <ele>491.075</ele>
        <time>2022-01-29T13:12:46Z</time>
      </trkpt>
      <trkpt lat="44.46982" lon="4.99569">
        <ele>488.937</ele>
        <time>2022-01-29T13:12:57Z</time>
      </trkpt>
      <trkpt lat="44.4694" lon="4.99571">
        <ele>486.379</ele>
        <time>2022-01-29T13:13:07Z</time>
      </trkpt>
      <trkpt lat="44.46889" lon="4.99578">
        <ele>483.899</ele>
        <time>2022-01-29T13:13:20Z</time>
      </trkpt>
      <trkpt lat="44.46871" lon="4.99587">
        <ele>483.91</ele>
        <time>2022-01-29T13:13:24Z</time>
      </trkpt>
      <trkpt lat="44.46859" lon="4.99598">
        <ele>484.789</ele>
        <time>2022-01-29T13:13:28Z</time>
      </trkpt>
      <trkpt lat="44.46852" lon="4.99613">
        <ele>486.296</ele>
        <time>2022-01-29T13:13:33Z</time>
      </trkpt>
      <trkpt lat="44.46853" lon="4.99632">
        <ele>489.063</ele>
        <time>2022-01-29T13:13:41Z</time>
      </trkpt>
      <trkpt lat="44.46859" lon="4.99652">
        <ele>489.495</ele>
        <time>2022-01-29T13:13:49Z</time>
      </trkpt>
      <trkpt lat="44.46875" lon="4.99671">
        <ele>492.232</ele>
        <time>2022-01-29T13:13:59Z</time>
      </trkpt>
      <trkpt lat="44.46886" lon="4.99679">
        <ele>494.517</ele>
        <time>2022-01-29T13:14:05Z</time>
      </trkpt>
      <trkpt lat="44.46902" lon="4.99686">
        <ele>497.739</ele>
        <time>2022-01-29T13:14:13Z</time>
      </trkpt>
      <trkpt lat="44.46965" lon="4.99684">
        <ele>504.83</ele>
        <time>2022-01-29T13:14:46Z</time>
      </trkpt>
      <trkpt lat="44.4698" lon="4.99686">
        <ele>506.435</ele>
        <time>2022-01-29T13:14:53Z</time>
      </trkpt>
      <trkpt lat="44.47032" lon="4.99708">
        <ele>514.443</ele>
        <time>2022-01-29T13:16:10Z</time>
      </trkpt>
      <trkpt lat="44.47063" lon="4.99725">
        <ele>517.11</ele>
        <time>2022-01-29T13:16:25Z</time>
      </trkpt>
      <trkpt lat="44.47135" lon="4.99759">
        <ele>529.958</ele>
        <time>2022-01-29T13:17:06Z</time>
      </trkpt>
      <trkpt lat="44.47184" lon="4.99798">
        <ele>534.966</ele>
        <time>2022-01-29T13:17:36Z</time>
      </trkpt>
      <trkpt lat="44.4722" lon="4.99842">
        <ele>535.659</ele>
        <time>2022-01-29T13:17:57Z</time>
      </trkpt>
      <trkpt lat="44.47291" lon="4.99911">
        <ele>541.251</ele>
        <time>2022-01-29T13:18:35Z</time>
      </trkpt>
      <trkpt lat="44.47323" lon="4.99953">
        <ele>540.071</ele>
        <time>2022-01-29T13:18:56Z</time>
      </trkpt>
      <trkpt lat="44.47348" lon="4.99974">
        <ele>545.121</ele>
        <time>2022-01-29T13:19:08Z</time>
      </trkpt>
      <trkpt lat="44.47382" lon="5.00007">
        <ele>550.56</ele>
        <time>2022-01-29T13:19:27Z</time>
      </trkpt>
      <trkpt lat="44.47418" lon="5.0006">
        <ele>557.204</ele>
        <time>2022-01-29T13:19:47Z</time>
      </trkpt>
      <trkpt lat="44.47429" lon="5.00082">
        <ele>558.952</ele>
        <time>2022-01-29T13:19:57Z</time>
      </trkpt>
      <trkpt lat="44.4744" lon="5.00098">
        <ele>559.055</ele>
        <time>2022-01-29T13:20:21Z</time>
      </trkpt>
      <trkpt lat="44.47443" lon="5.0012">
        <ele>562.695</ele>
        <time>2022-01-29T13:21:01Z</time>
      </trkpt>
      <trkpt lat="44.47452" lon="5.00131">
        <ele>564.54</ele>
        <time>2022-01-29T13:22:13Z</time>
      </trkpt>
      <trkpt lat="44.47477" lon="5.00138">
        <ele>567.14</ele>
        <time>2022-01-29T13:22:32Z</time>
      </trkpt>
      <trkpt lat="44.47494" lon="5.0015">
        <ele>566.917</ele>
        <time>2022-01-29T13:22:43Z</time>
      </trkpt>
      <trkpt lat="44.47519" lon="5.00173">
        <ele>569.442</ele>
        <time>2022-01-29T13:22:57Z</time>
      </trkpt>
      <trkpt lat="44.4756" lon="5.00224">
        <ele>574.009</ele>
        <time>2022-01-29T13:23:20Z</time>
      </trkpt>
      <trkpt lat="44.47575" lon="5.00249">
        <ele>576.742</ele>
        <time>2022-01-29T13:23:32Z</time>
      </trkpt>
      <trkpt lat="44.47609" lon="5.00286">
        <ele>581.191</ele>
        <time>2022-01-29T13:23:52Z</time>
      </trkpt>
      <trkpt lat="44.47658" lon="5.00358">
        <ele>589.613</ele>
        <time>2022-01-29T13:24:22Z</time>
      </trkpt>
      <trkpt lat="44.47698" lon="5.00401">
        <ele>595.479</ele>
        <time>2022-01-29T13:24:44Z</time>
      </trkpt>
      <trkpt lat="44.47734" lon="5.00429">
        <ele>599.332</ele>
        <time>2022-01-29T13:25:20Z</time>
      </trkpt>
      <trkpt lat="44.47763" lon="5.00458">
        <ele>603.606</ele>
        <time>2022-01-29T13:25:36Z</time>
      </trkpt>
      <trkpt lat="44.47776" lon="5.00475">
        <ele>604.574</ele>
        <time>2022-01-29T13:25:47Z</time>
      </trkpt>
      <trkpt lat="44.47788" lon="5.00486">
        <ele>605.478</ele>
        <time>2022-01-29T13:25:55Z</time>
      </trkpt>
      <trkpt lat="44.47801" lon="5.00493">
        <ele>606.881</ele>
        <time>2022-01-29T13:26:04Z</time>
      </trkpt>
      <trkpt lat="44.47813" lon="5.00509">
        <ele>609.825</ele>
        <time>2022-01-29T13:26:09Z</time>
      </trkpt>
      <trkpt lat="44.47828" lon="5.0052">
        <ele>613.193</ele>
        <time>2022-01-29T13:26:15Z</time>
      </trkpt>
      <trkpt lat="44.47853" lon="5.00547">
        <ele>614.974</ele>
        <time>2022-01-29T13:26:30Z</time>
      </trkpt>
      <trkpt lat="44.47871" lon="5.00572">
        <ele>617.911</ele>
        <time>2022-01-29T13:26:40Z</time>
      </trkpt>
      <trkpt lat="44.47881" lon="5.00581">
        <ele>619.748</ele>
        <time>2022-01-29T13:26:45Z</time>
      </trkpt>
      <trkpt lat="44.47899" lon="5.00611">
        <ele>620.508</ele>
        <time>2022-01-29T13:26:53Z</time>
      </trkpt>
      <trkpt lat="44.47918" lon="5.00631">
        <ele>623.523</ele>
        <time>2022-01-29T13:27:02Z</time>
      </trkpt>
      <trkpt lat="44.47933" lon="5.00652">
        <ele>626.175</ele>
        <time>2022-01-29T13:27:13Z</time>
      </trkpt>
      <trkpt lat="44.47942" lon="5.00658">
        <ele>627.564</ele>
        <time>2022-01-29T13:27:16Z</time>
      </trkpt>
      <trkpt lat="44.47966" lon="5.00708">
        <ele>630.802</ele>
        <time>2022-01-29T13:27:37Z</time>
      </trkpt>
      <trkpt lat="44.47977" lon="5.00724">
        <ele>631.455</ele>
        <time>2022-01-29T13:27:42Z</time>
      </trkpt>
      <trkpt lat="44.4799" lon="5.00759">
        <ele>634.53</ele>
        <time>2022-01-29T13:27:51Z</time>
      </trkpt>
      <trkpt lat="44.47996" lon="5.0079">
        <ele>639.334</ele>
        <time>2022-01-29T13:27:59Z</time>
      </trkpt>
      <trkpt lat="44.47994" lon="5.0081">
        <ele>641.372</ele>
        <time>2022-01-29T13:29:18Z</time>
      </trkpt>
      <trkpt lat="44.47989" lon="5.00799">
        <ele>639.485</ele>
        <time>2022-01-29T13:36:16Z</time>
      </trkpt>
      <trkpt lat="44.47986" lon="5.0078">
        <ele>636.477</ele>
        <time>2022-01-29T13:36:20Z</time>
      </trkpt>
      <trkpt lat="44.47954" lon="5.00702">
        <ele>629.511</ele>
        <time>2022-01-29T13:36:46Z</time>
      </trkpt>
      <trkpt lat="44.47927" lon="5.0066">
        <ele>625.921</ele>
        <time>2022-01-29T13:36:59Z</time>
      </trkpt>
      <trkpt lat="44.47919" lon="5.00636">
        <ele>623.906</ele>
        <time>2022-01-29T13:37:07Z</time>
      </trkpt>
      <trkpt lat="44.47901" lon="5.00605">
        <ele>621.541</ele>
        <time>2022-01-29T13:37:17Z</time>
      </trkpt>
      <trkpt lat="44.47889" lon="5.00593">
        <ele>620.249</ele>
        <time>2022-01-29T13:37:21Z</time>
      </trkpt>
      <trkpt lat="44.47856" lon="5.00572">
        <ele>614.797</ele>
        <time>2022-01-29T13:37:50Z</time>
      </trkpt>
      <trkpt lat="44.47842" lon="5.00556">
        <ele>611.462</ele>
        <time>2022-01-29T13:38:08Z</time>
      </trkpt>
      <trkpt lat="44.47839" lon="5.00546">
        <ele>612.578</ele>
        <time>2022-01-29T13:39:01Z</time>
      </trkpt>
      <trkpt lat="44.4778" lon="5.00515">
        <ele>605.329</ele>
        <time>2022-01-29T13:39:05Z</time>
      </trkpt>
      <trkpt lat="44.47767" lon="5.00512">
        <ele>603.563</ele>
        <time>2022-01-29T13:39:10Z</time>
      </trkpt>
      <trkpt lat="44.4774" lon="5.00494">
        <ele>600.217</ele>
        <time>2022-01-29T13:40:13Z</time>
      </trkpt>
      <trkpt lat="44.47705" lon="5.00455">
        <ele>596.976</ele>
        <time>2022-01-29T13:40:29Z</time>
      </trkpt>
      <trkpt lat="44.47682" lon="5.00425">
        <ele>591.063</ele>
        <time>2022-01-29T13:40:39Z</time>
      </trkpt>
      <trkpt lat="44.47674" lon="5.0041">
        <ele>590.473</ele>
        <time>2022-01-29T13:40:44Z</time>
      </trkpt>
      <trkpt lat="44.47643" lon="5.00379">
        <ele>589.02</ele>
        <time>2022-01-29T13:41:08Z</time>
      </trkpt>
      <trkpt lat="44.47624" lon="5.0035">
        <ele>585.461</ele>
        <time>2022-01-29T13:41:16Z</time>
      </trkpt>
      <trkpt lat="44.47613" lon="5.00324">
        <ele>584.232</ele>
        <time>2022-01-29T13:41:23Z</time>
      </trkpt>
      <trkpt lat="44.47599" lon="5.00299">
        <ele>580.141</ele>
        <time>2022-01-29T13:41:34Z</time>
      </trkpt>
      <trkpt lat="44.47592" lon="5.00278">
        <ele>578.775</ele>
        <time>2022-01-29T13:41:41Z</time>
      </trkpt>
      <trkpt lat="44.47566" lon="5.00249">
        <ele>576.368</ele>
        <time>2022-01-29T13:41:53Z</time>
      </trkpt>
      <trkpt lat="44.47543" lon="5.00231">
        <ele>571.296</ele>
        <time>2022-01-29T13:42:27Z</time>
      </trkpt>
      <trkpt lat="44.47546" lon="5.00222">
        <ele>571.987</ele>
        <time>2022-01-29T13:42:54Z</time>
      </trkpt>
      <trkpt lat="44.47539" lon="5.00217">
        <ele>572.043</ele>
        <time>2022-01-29T13:42:57Z</time>
      </trkpt>
      <trkpt lat="44.47524" lon="5.00213">
        <ele>572.742</ele>
        <time>2022-01-29T13:43:03Z</time>
      </trkpt>
      <trkpt lat="44.47497" lon="5.00185">
        <ele>568.506</ele>
        <time>2022-01-29T13:44:01Z</time>
      </trkpt>
      <trkpt lat="44.47481" lon="5.00173">
        <ele>567.92</ele>
        <time>2022-01-29T13:44:06Z</time>
      </trkpt>
      <trkpt lat="44.47462" lon="5.0015">
        <ele>566.605</ele>
        <time>2022-01-29T13:44:12Z</time>
      </trkpt>
      <trkpt lat="44.47446" lon="5.00136">
        <ele>565.311</ele>
        <time>2022-01-29T13:44:18Z</time>
      </trkpt>
      <trkpt lat="44.47428" lon="5.00106">
        <ele>559.11</ele>
        <time>2022-01-29T13:44:29Z</time>
      </trkpt>
      <trkpt lat="44.47415" lon="5.00097">
        <ele>555.597</ele>
        <time>2022-01-29T13:44:34Z</time>
      </trkpt>
      <trkpt lat="44.47403" lon="5.00081">
        <ele>553.638</ele>
        <time>2022-01-29T13:44:43Z</time>
      </trkpt>
      <trkpt lat="44.47391" lon="5.00072">
        <ele>550.94</ele>
        <time>2022-01-29T13:44:49Z</time>
      </trkpt>
      <trkpt lat="44.47346" lon="5.00059">
        <ele>539.771</ele>
        <time>2022-01-29T13:45:24Z</time>
      </trkpt>
      <trkpt lat="44.47329" lon="5.00051">
        <ele>534.034</ele>
        <time>2022-01-29T13:46:12Z</time>
      </trkpt>
      <trkpt lat="44.47307" lon="5.00027">
        <ele>525.585</ele>
        <time>2022-01-29T13:46:34Z</time>
      </trkpt>
      <trkpt lat="44.47249" lon="4.99995">
        <ele>520.008</ele>
        <time>2022-01-29T13:46:46Z</time>
      </trkpt>
      <trkpt lat="44.47252" lon="4.99997">
        <ele>520.699</ele>
        <time>2022-01-29T13:46:50Z</time>
      </trkpt>
      <trkpt lat="44.47253" lon="5.0001">
        <ele>524.342</ele>
        <time>2022-01-29T13:47:16Z</time>
      </trkpt>
      <trkpt lat="44.4724" lon="4.99997">
        <ele>519.973</ele>
        <time>2022-01-29T13:47:27Z</time>
      </trkpt>
      <trkpt lat="44.47218" lon="4.99985">
        <ele>515.493</ele>
        <time>2022-01-29T13:47:33Z</time>
      </trkpt>
      <trkpt lat="44.47126" lon="4.99958">
        <ele>509.125</ele>
        <time>2022-01-29T13:47:54Z</time>
      </trkpt>
      <trkpt lat="44.47069" lon="4.99945">
        <ele>505.255</ele>
        <time>2022-01-29T13:48:05Z</time>
      </trkpt>
      <trkpt lat="44.47009" lon="4.99944">
        <ele>503.389</ele>
        <time>2022-01-29T13:48:16Z</time>
      </trkpt>
      <trkpt lat="44.4696" lon="4.99948">
        <ele>501.64</ele>
        <time>2022-01-29T13:48:29Z</time>
      </trkpt>
      <trkpt lat="44.46929" lon="4.99959">
        <ele>497.536</ele>
        <time>2022-01-29T13:48:38Z</time>
      </trkpt>
      <trkpt lat="44.46918" lon="4.99971">
        <ele>497.909</ele>
        <time>2022-01-29T13:48:41Z</time>
      </trkpt>
      <trkpt lat="44.4691" lon="4.99987">
        <ele>499.967</ele>
        <time>2022-01-29T13:48:45Z</time>
      </trkpt>
      <trkpt lat="44.46882" lon="5.00015">
        <ele>499.679</ele>
        <time>2022-01-29T13:49:00Z</time>
      </trkpt>
      <trkpt lat="44.46878" lon="5.00015">
        <ele>498.546</ele>
        <time>2022-01-29T13:49:02Z</time>
      </trkpt>
      <trkpt lat="44.4686" lon="4.99992">
        <ele>494.322</ele>
        <time>2022-01-29T13:49:12Z</time>
      </trkpt>
      <trkpt lat="44.46846" lon="4.99979">
        <ele>493.657</ele>
        <time>2022-01-29T13:49:16Z</time>
      </trkpt>
      <trkpt lat="44.46819" lon="4.99966">
        <ele>494.223</ele>
        <time>2022-01-29T13:49:23Z</time>
      </trkpt>
      <trkpt lat="44.46767" lon="4.99956">
        <ele>496.825</ele>
        <time>2022-01-29T13:49:37Z</time>
      </trkpt>
      <trkpt lat="44.46754" lon="4.99947">
        <ele>495.487</ele>
        <time>2022-01-29T13:49:42Z</time>
      </trkpt>
      <trkpt lat="44.46716" lon="4.99948">
        <ele>498.213</ele>
        <time>2022-01-29T13:49:52Z</time>
      </trkpt>
      <trkpt lat="44.46689" lon="4.99942">
        <ele>498.704</ele>
        <time>2022-01-29T13:49:59Z</time>
      </trkpt>
      <trkpt lat="44.46665" lon="4.99947">
        <ele>500.188</ele>
        <time>2022-01-29T13:50:17Z</time>
      </trkpt>
      <trkpt lat="44.46651" lon="4.99941">
        <ele>500.274</ele>
        <time>2022-01-29T13:50:22Z</time>
      </trkpt>
      <trkpt lat="44.46632" lon="4.99947">
        <ele>499.087</ele>
        <time>2022-01-29T13:50:27Z</time>
      </trkpt>
      <trkpt lat="44.46604" lon="4.99967">
        <ele>497.556</ele>
        <time>2022-01-29T13:50:37Z</time>
      </trkpt>
      <trkpt lat="44.46609" lon="4.99997">
        <ele>499.606</ele>
        <time>2022-01-29T13:50:51Z</time>
      </trkpt>
      <trkpt lat="44.46626" lon="5.00026">
        <ele>501.984</ele>
        <time>2022-01-29T13:51:02Z</time>
      </trkpt>
      <trkpt lat="44.46647" lon="5.00055">
        <ele>504.91</ele>
        <time>2022-01-29T13:51:17Z</time>
      </trkpt>
      <trkpt lat="44.46676" lon="5.00083">
        <ele>509.611</ele>
        <time>2022-01-29T13:51:33Z</time>
      </trkpt>
      <trkpt lat="44.46685" lon="5.00098">
        <ele>511.649</ele>
        <time>2022-01-29T13:51:39Z</time>
      </trkpt>
      <trkpt lat="44.467" lon="5.00136">
        <ele>516.421</ele>
        <time>2022-01-29T13:51:53Z</time>
      </trkpt>
      <trkpt lat="44.46703" lon="5.00173">
        <ele>520.348</ele>
        <time>2022-01-29T13:52:07Z</time>
      </trkpt>
      <trkpt lat="44.46716" lon="5.00222">
        <ele>526.673</ele>
        <time>2022-01-29T13:52:23Z</time>
      </trkpt>
      <trkpt lat="44.4674" lon="5.00284">
        <ele>535.275</ele>
        <time>2022-01-29T13:52:51Z</time>
      </trkpt>
      <trkpt lat="44.46749" lon="5.00296">
        <ele>537.723</ele>
        <time>2022-01-29T13:52:56Z</time>
      </trkpt>
      <trkpt lat="44.46759" lon="5.00318">
        <ele>541.594</ele>
        <time>2022-01-29T13:53:03Z</time>
      </trkpt>
      <trkpt lat="44.46775" lon="5.0034">
        <ele>544.815</ele>
        <time>2022-01-29T13:53:11Z</time>
      </trkpt>
      <trkpt lat="44.46803" lon="5.0036">
        <ele>552.391</ele>
        <time>2022-01-29T13:53:23Z</time>
      </trkpt>
      <trkpt lat="44.46822" lon="5.00366">
        <ele>557.896</ele>
        <time>2022-01-29T13:53:42Z</time>
      </trkpt>
      <trkpt lat="44.46849" lon="5.00358">
        <ele>565.095</ele>
        <time>2022-01-29T13:54:45Z</time>
      </trkpt>
      <trkpt lat="44.46873" lon="5.00323">
        <ele>569.231</ele>
        <time>2022-01-29T13:54:59Z</time>
      </trkpt>
      <trkpt lat="44.46909" lon="5.00295">
        <ele>570.234</ele>
        <time>2022-01-29T13:55:16Z</time>
      </trkpt>
      <trkpt lat="44.4694" lon="5.00264">
        <ele>569.36</ele>
        <time>2022-01-29T13:55:31Z</time>
      </trkpt>
      <trkpt lat="44.46965" lon="5.0025">
        <ele>570.737</ele>
        <time>2022-01-29T13:55:41Z</time>
      </trkpt>
      <trkpt lat="44.47016" lon="5.00229">
        <ele>576.113</ele>
        <time>2022-01-29T13:56:02Z</time>
      </trkpt>
      <trkpt lat="44.4707" lon="5.00214">
        <ele>583.258</ele>
        <time>2022-01-29T13:56:23Z</time>
      </trkpt>
      <trkpt lat="44.47084" lon="5.00207">
        <ele>584.707</ele>
        <time>2022-01-29T13:56:29Z</time>
      </trkpt>
      <trkpt lat="44.471" lon="5.00206">
        <ele>587.188</ele>
        <time>2022-01-29T13:56:35Z</time>
      </trkpt>
      <trkpt lat="44.47146" lon="5.00196">
        <ele>589.455</ele>
        <time>2022-01-29T13:56:55Z</time>
      </trkpt>
      <trkpt lat="44.47219" lon="5.002">
        <ele>593.672</ele>
        <time>2022-01-29T13:57:27Z</time>
      </trkpt>
      <trkpt lat="44.47285" lon="5.00216">
        <ele>597.458</ele>
        <time>2022-01-29T13:57:54Z</time>
      </trkpt>
      <trkpt lat="44.47324" lon="5.00233">
        <ele>601.308</ele>
        <time>2022-01-29T13:58:10Z</time>
      </trkpt>
      <trkpt lat="44.47348" lon="5.00248">
        <ele>605.254</ele>
        <time>2022-01-29T13:58:20Z</time>
      </trkpt>
      <trkpt lat="44.47357" lon="5.00247">
        <ele>604.328</ele>
        <time>2022-01-29T13:58:26Z</time>
      </trkpt>
      <trkpt lat="44.47379" lon="5.00258">
        <ele>606.653</ele>
        <time>2022-01-29T13:58:36Z</time>
      </trkpt>
      <trkpt lat="44.47439" lon="5.00314">
        <ele>616.305</ele>
        <time>2022-01-29T13:59:04Z</time>
      </trkpt>
      <trkpt lat="44.47463" lon="5.00355">
        <ele>622.349</ele>
        <time>2022-01-29T13:59:20Z</time>
      </trkpt>
      <trkpt lat="44.47473" lon="5.00362">
        <ele>621.548</ele>
        <time>2022-01-29T13:59:24Z</time>
      </trkpt>
      <trkpt lat="44.47509" lon="5.00423">
        <ele>628.378</ele>
        <time>2022-01-29T13:59:42Z</time>
      </trkpt>
      <trkpt lat="44.47518" lon="5.00442">
        <ele>630.658</ele>
        <time>2022-01-29T13:59:48Z</time>
      </trkpt>
      <trkpt lat="44.47531" lon="5.00459">
        <ele>630.718</ele>
        <time>2022-01-29T13:59:55Z</time>
      </trkpt>
      <trkpt lat="44.47565" lon="5.00517">
        <ele>633.399</ele>
        <time>2022-01-29T14:00:19Z</time>
      </trkpt>
      <trkpt lat="44.47631" lon="5.00609">
        <ele>637.544</ele>
        <time>2022-01-29T14:00:54Z</time>
      </trkpt>
      <trkpt lat="44.47653" lon="5.00635">
        <ele>640.899</ele>
        <time>2022-01-29T14:01:06Z</time>
      </trkpt>
      <trkpt lat="44.47664" lon="5.00642">
        <ele>640.778</ele>
        <time>2022-01-29T14:01:11Z</time>
      </trkpt>
      <trkpt lat="44.47684" lon="5.00663">
        <ele>643.355</ele>
        <time>2022-01-29T14:01:19Z</time>
      </trkpt>
      <trkpt lat="44.47711" lon="5.00684">
        <ele>645.853</ele>
        <time>2022-01-29T14:01:31Z</time>
      </trkpt>
      <trkpt lat="44.47758" lon="5.00711">
        <ele>649.512</ele>
        <time>2022-01-29T14:01:46Z</time>
      </trkpt>
      <trkpt lat="44.47767" lon="5.00719">
        <ele>650.775</ele>
        <time>2022-01-29T14:01:51Z</time>
      </trkpt>
      <trkpt lat="44.47855" lon="5.00751">
        <ele>649.56</ele>
        <time>2022-01-29T14:03:15Z</time>
      </trkpt>
      <trkpt lat="44.47893" lon="5.00775">
        <ele>648.817</ele>
        <time>2022-01-29T14:03:26Z</time>
      </trkpt>
      <trkpt lat="44.47945" lon="5.00824">
        <ele>647.662</ele>
        <time>2022-01-29T14:03:38Z</time>
      </trkpt>
      <trkpt lat="44.47977" lon="5.0084">
        <ele>644.394</ele>
        <time>2022-01-29T14:03:45Z</time>
      </trkpt>
      <trkpt lat="44.47994" lon="5.00859">
        <ele>646.254</ele>
        <time>2022-01-29T14:03:51Z</time>
      </trkpt>
      <trkpt lat="44.48012" lon="5.0087">
        <ele>646.745</ele>
        <time>2022-01-29T14:04:00Z</time>
      </trkpt>
      <trkpt lat="44.48026" lon="5.00882">
        <ele>646.93</ele>
        <time>2022-01-29T14:04:08Z</time>
      </trkpt>
      <trkpt lat="44.48055" lon="5.00885">
        <ele>648.463</ele>
        <time>2022-01-29T14:04:22Z</time>
      </trkpt>
      <trkpt lat="44.48077" lon="5.00883">
        <ele>649.842</ele>
        <time>2022-01-29T14:04:55Z</time>
      </trkpt>
      <trkpt lat="44.48174" lon="5.00864">
        <ele>650.989</ele>
        <time>2022-01-29T14:05:30Z</time>
      </trkpt>
      <trkpt lat="44.48193" lon="5.00855">
        <ele>651.775</ele>
        <time>2022-01-29T14:05:37Z</time>
      </trkpt>
      <trkpt lat="44.48203" lon="5.00854">
        <ele>650.593</ele>
        <time>2022-01-29T14:05:40Z</time>
      </trkpt>
      <trkpt lat="44.48213" lon="5.00847">
        <ele>650.125</ele>
        <time>2022-01-29T14:05:44Z</time>
      </trkpt>
      <trkpt lat="44.48238" lon="5.0082">
        <ele>652.643</ele>
        <time>2022-01-29T14:05:52Z</time>
      </trkpt>
      <trkpt lat="44.48261" lon="5.00801">
        <ele>650.099</ele>
        <time>2022-01-29T14:06:00Z</time>
      </trkpt>
      <trkpt lat="44.48271" lon="5.00787">
        <ele>650.734</ele>
        <time>2022-01-29T14:06:05Z</time>
      </trkpt>
      <trkpt lat="44.48287" lon="5.00752">
        <ele>651.43</ele>
        <time>2022-01-29T14:06:12Z</time>
      </trkpt>
      <trkpt lat="44.48295" lon="5.00739">
        <ele>649.525</ele>
        <time>2022-01-29T14:06:15Z</time>
      </trkpt>
      <trkpt lat="44.48324" lon="5.00723">
        <ele>648.527</ele>
        <time>2022-01-29T14:06:27Z</time>
      </trkpt>
      <trkpt lat="44.48332" lon="5.00722">
        <ele>648.534</ele>
        <time>2022-01-29T14:06:30Z</time>
      </trkpt>
      <trkpt lat="44.48371" lon="5.00697">
        <ele>649.645</ele>
        <time>2022-01-29T14:06:49Z</time>
      </trkpt>
      <trkpt lat="44.48383" lon="5.00679">
        <ele>652.905</ele>
        <time>2022-01-29T14:06:57Z</time>
      </trkpt>
      <trkpt lat="44.48424" lon="5.0065">
        <ele>655.564</ele>
        <time>2022-01-29T14:07:18Z</time>
      </trkpt>
      <trkpt lat="44.48465" lon="5.00637">
        <ele>651.291</ele>
        <time>2022-01-29T14:07:29Z</time>
      </trkpt>
      <trkpt lat="44.48503" lon="5.00617">
        <ele>651.175</ele>
        <time>2022-01-29T14:07:46Z</time>
      </trkpt>
      <trkpt lat="44.48541" lon="5.00606">
        <ele>649.316</ele>
        <time>2022-01-29T14:08:17Z</time>
      </trkpt>
      <trkpt lat="44.48553" lon="5.00605">
        <ele>647.193</ele>
        <time>2022-01-29T14:08:22Z</time>
      </trkpt>
      <trkpt lat="44.48565" lon="5.00597">
        <ele>649.309</ele>
        <time>2022-01-29T14:08:27Z</time>
      </trkpt>
      <trkpt lat="44.48574" lon="5.00596">
        <ele>648.409</ele>
        <time>2022-01-29T14:08:31Z</time>
      </trkpt>
      <trkpt lat="44.48581" lon="5.00592">
        <ele>649.755</ele>
        <time>2022-01-29T14:08:34Z</time>
      </trkpt>
      <trkpt lat="44.48624" lon="5.00578">
        <ele>649.289</ele>
        <time>2022-01-29T14:08:49Z</time>
      </trkpt>
      <trkpt lat="44.48659" lon="5.00572">
        <ele>645.303</ele>
        <time>2022-01-29T14:08:58Z</time>
      </trkpt>
      <trkpt lat="44.48674" lon="5.00564">
        <ele>645.163</ele>
        <time>2022-01-29T14:09:02Z</time>
      </trkpt>
      <trkpt lat="44.4869" lon="5.00564">
        <ele>641.533</ele>
        <time>2022-01-29T14:09:07Z</time>
      </trkpt>
      <trkpt lat="44.4871" lon="5.00559">
        <ele>638.706</ele>
        <time>2022-01-29T14:09:12Z</time>
      </trkpt>
      <trkpt lat="44.48751" lon="5.00533">
        <ele>640.309</ele>
        <time>2022-01-29T14:09:24Z</time>
      </trkpt>
      <trkpt lat="44.48762" lon="5.00513">
        <ele>643.581</ele>
        <time>2022-01-29T14:09:50Z</time>
      </trkpt>
      <trkpt lat="44.48836" lon="5.00458">
        <ele>638.91</ele>
        <time>2022-01-29T14:10:18Z</time>
      </trkpt>
      <trkpt lat="44.48858" lon="5.00448">
        <ele>635.883</ele>
        <time>2022-01-29T14:10:25Z</time>
      </trkpt>
      <trkpt lat="44.4889" lon="5.00426">
        <ele>634.981</ele>
        <time>2022-01-29T14:10:40Z</time>
      </trkpt>
      <trkpt lat="44.48902" lon="5.00408">
        <ele>639.379</ele>
        <time>2022-01-29T14:10:47Z</time>
      </trkpt>
      <trkpt lat="44.48917" lon="5.00405">
        <ele>635.705</ele>
        <time>2022-01-29T14:10:52Z</time>
      </trkpt>
      <trkpt lat="44.48934" lon="5.00395">
        <ele>634.73</ele>
        <time>2022-01-29T14:11:00Z</time>
      </trkpt>
      <trkpt lat="44.48948" lon="5.00381">
        <ele>636.974</ele>
        <time>2022-01-29T14:11:08Z</time>
      </trkpt>
      <trkpt lat="44.48947" lon="5.00379">
        <ele>638.225</ele>
        <time>2022-01-29T14:11:15Z</time>
      </trkpt>
      <trkpt lat="44.48976" lon="5.0037">
        <ele>632.44</ele>
        <time>2022-01-29T14:11:36Z</time>
      </trkpt>
      <trkpt lat="44.48995" lon="5.00357">
        <ele>632.047</ele>
        <time>2022-01-29T14:11:43Z</time>
      </trkpt>
      <trkpt lat="44.49021" lon="5.00345">
        <ele>628.249</ele>
        <time>2022-01-29T14:11:51Z</time>
      </trkpt>
      <trkpt lat="44.4903" lon="5.00336">
        <ele>629.345</ele>
        <time>2022-01-29T14:11:54Z</time>
      </trkpt>
      <trkpt lat="44.49058" lon="5.00326">
        <ele>624.679</ele>
        <time>2022-01-29T14:12:01Z</time>
      </trkpt>
      <trkpt lat="44.49074" lon="5.00317">
        <ele>623.717</ele>
        <time>2022-01-29T14:12:05Z</time>
      </trkpt>
      <trkpt lat="44.49092" lon="5.00287">
        <ele>630.76</ele>
        <time>2022-01-29T14:12:15Z</time>
      </trkpt>
      <trkpt lat="44.49109" lon="5.00282">
        <ele>627.1</ele>
        <time>2022-01-29T14:12:23Z</time>
      </trkpt>
      <trkpt lat="44.49143" lon="5.00256">
        <ele>630.319</ele>
        <time>2022-01-29T14:12:35Z</time>
      </trkpt>
      <trkpt lat="44.49168" lon="5.00248">
        <ele>629.013</ele>
        <time>2022-01-29T14:12:43Z</time>
      </trkpt>
      <trkpt lat="44.49191" lon="5.00235">
        <ele>628.952</ele>
        <time>2022-01-29T14:12:50Z</time>
      </trkpt>
      <trkpt lat="44.49215" lon="5.00229">
        <ele>624.945</ele>
        <time>2022-01-29T14:12:58Z</time>
      </trkpt>
      <trkpt lat="44.49232" lon="5.00216">
        <ele>625.375</ele>
        <time>2022-01-29T14:13:04Z</time>
      </trkpt>
      <trkpt lat="44.49246" lon="5.00193">
        <ele>630.85</ele>
        <time>2022-01-29T14:13:11Z</time>
      </trkpt>
      <trkpt lat="44.49258" lon="5.00189">
        <ele>629.11</ele>
        <time>2022-01-29T14:13:15Z</time>
      </trkpt>
      <trkpt lat="44.49272" lon="5.00177">
        <ele>630.06</ele>
        <time>2022-01-29T14:13:22Z</time>
      </trkpt>
      <trkpt lat="44.49286" lon="5.00173">
        <ele>627.885</ele>
        <time>2022-01-29T14:13:27Z</time>
      </trkpt>
      <trkpt lat="44.49305" lon="5.00161">
        <ele>627.464</ele>
        <time>2022-01-29T14:13:35Z</time>
      </trkpt>
      <trkpt lat="44.49341" lon="5.00127">
        <ele>631.121</ele>
        <time>2022-01-29T14:13:51Z</time>
      </trkpt>
      <trkpt lat="44.49346" lon="5.00117">
        <ele>634.702</ele>
        <time>2022-01-29T14:13:55Z</time>
      </trkpt>
      <trkpt lat="44.49355" lon="5.00105">
        <ele>638.305</ele>
        <time>2022-01-29T14:14:02Z</time>
      </trkpt>
      <trkpt lat="44.49361" lon="5.00103">
        <ele>638.387</ele>
        <time>2022-01-29T14:14:05Z</time>
      </trkpt>
      <trkpt lat="44.49366" lon="5.00086">
        <ele>645.376</ele>
        <time>2022-01-29T14:15:03Z</time>
      </trkpt>
      <trkpt lat="44.49378" lon="5.00088">
        <ele>641.814</ele>
        <time>2022-01-29T14:15:14Z</time>
      </trkpt>
      <trkpt lat="44.49382" lon="5.00082">
        <ele>643.646</ele>
        <time>2022-01-29T14:15:20Z</time>
      </trkpt>
      <trkpt lat="44.49383" lon="5.00057">
        <ele>653.762</ele>
        <time>2022-01-29T14:17:07Z</time>
      </trkpt>
      <trkpt lat="44.49382" lon="5.00025">
        <ele>664.618</ele>
        <time>2022-01-29T14:17:47Z</time>
      </trkpt>
      <trkpt lat="44.49379" lon="5.00013">
        <ele>668.76</ele>
        <time>2022-01-29T14:18:00Z</time>
      </trkpt>
      <trkpt lat="44.49372" lon="4.99997">
        <ele>672.527</ele>
        <time>2022-01-29T14:18:59Z</time>
      </trkpt>
      <trkpt lat="44.49363" lon="4.99987">
        <ele>672.679</ele>
        <time>2022-01-29T14:22:11Z</time>
      </trkpt>
      <trkpt lat="44.4935" lon="4.99956">
        <ele>669.797</ele>
        <time>2022-01-29T14:22:28Z</time>
      </trkpt>
      <trkpt lat="44.49308" lon="4.99897">
        <ele>662.806</ele>
        <time>2022-01-29T14:23:02Z</time>
      </trkpt>
      <trkpt lat="44.49239" lon="4.9982">
        <ele>654.37</ele>
        <time>2022-01-29T14:23:23Z</time>
      </trkpt>
      <trkpt lat="44.49214" lon="4.99785">
        <ele>648.146</ele>
        <time>2022-01-29T14:23:34Z</time>
      </trkpt>
      <trkpt lat="44.49194" lon="4.99765">
        <ele>645.008</ele>
        <time>2022-01-29T14:23:40Z</time>
      </trkpt>
      <trkpt lat="44.49132" lon="4.99716">
        <ele>633.457</ele>
        <time>2022-01-29T14:23:58Z</time>
      </trkpt>
      <trkpt lat="44.49108" lon="4.9969">
        <ele>630.317</ele>
        <time>2022-01-29T14:24:06Z</time>
      </trkpt>
      <trkpt lat="44.49085" lon="4.99644">
        <ele>624.362</ele>
        <time>2022-01-29T14:24:16Z</time>
      </trkpt>
      <trkpt lat="44.49082" lon="4.99631">
        <ele>623.755</ele>
        <time>2022-01-29T14:24:19Z</time>
      </trkpt>
      <trkpt lat="44.49067" lon="4.99601">
        <ele>621.067</ele>
        <time>2022-01-29T14:24:27Z</time>
      </trkpt>
      <trkpt lat="44.49058" lon="4.9957">
        <ele>617.106</ele>
        <time>2022-01-29T14:24:32Z</time>
      </trkpt>
      <trkpt lat="44.49047" lon="4.99494">
        <ele>603.457</ele>
        <time>2022-01-29T14:24:47Z</time>
      </trkpt>
      <trkpt lat="44.49039" lon="4.99479">
        <ele>601.848</ele>
        <time>2022-01-29T14:24:51Z</time>
      </trkpt>
      <trkpt lat="44.49028" lon="4.9947">
        <ele>602.545</ele>
        <time>2022-01-29T14:24:55Z</time>
      </trkpt>
      <trkpt lat="44.4899" lon="4.99454">
        <ele>599.326</ele>
        <time>2022-01-29T14:25:04Z</time>
      </trkpt>
      <trkpt lat="44.4897" lon="4.99457">
        <ele>595.596</ele>
        <time>2022-01-29T14:25:09Z</time>
      </trkpt>
      <trkpt lat="44.48959" lon="4.99462">
        <ele>594.027</ele>
        <time>2022-01-29T14:25:15Z</time>
      </trkpt>
      <trkpt lat="44.48953" lon="4.99447">
        <ele>592.06</ele>
        <time>2022-01-29T14:25:24Z</time>
      </trkpt>
      <trkpt lat="44.48925" lon="4.99409">
        <ele>586.093</ele>
        <time>2022-01-29T14:25:37Z</time>
      </trkpt>
      <trkpt lat="44.48923" lon="4.99402">
        <ele>586.503</ele>
        <time>2022-01-29T14:25:41Z</time>
      </trkpt>
      <trkpt lat="44.48889" lon="4.99365">
        <ele>583.148</ele>
        <time>2022-01-29T14:28:27Z</time>
      </trkpt>
      <trkpt lat="44.48889" lon="4.99353">
        <ele>581.655</ele>
        <time>2022-01-29T14:30:49Z</time>
      </trkpt>
      <trkpt lat="44.48878" lon="4.99333">
        <ele>581.986</ele>
        <time>2022-01-29T14:31:47Z</time>
      </trkpt>
      <trkpt lat="44.48861" lon="4.99314">
        <ele>581.218</ele>
        <time>2022-01-29T14:31:54Z</time>
      </trkpt>
      <trkpt lat="44.48852" lon="4.99299">
        <ele>580.177</ele>
        <time>2022-01-29T14:32:13Z</time>
      </trkpt>
      <trkpt lat="44.48827" lon="4.99269">
        <ele>573.45</ele>
        <time>2022-01-29T14:33:29Z</time>
      </trkpt>
      <trkpt lat="44.4881" lon="4.99236">
        <ele>575.669</ele>
        <time>2022-01-29T14:33:55Z</time>
      </trkpt>
      <trkpt lat="44.48807" lon="4.9922">
        <ele>575.142</ele>
        <time>2022-01-29T14:34:04Z</time>
      </trkpt>
      <trkpt lat="44.48751" lon="4.99162">
        <ele>562.4</ele>
        <time>2022-01-29T14:45:11Z</time>
      </trkpt>
      <trkpt lat="44.48717" lon="4.99152">
        <ele>563.194</ele>
        <time>2022-01-29T14:45:22Z</time>
      </trkpt>
      <trkpt lat="44.48707" lon="4.99146">
        <ele>564.521</ele>
        <time>2022-01-29T14:45:26Z</time>
      </trkpt>
      <trkpt lat="44.48692" lon="4.99145">
        <ele>567.08</ele>
        <time>2022-01-29T14:45:32Z</time>
      </trkpt>
      <trkpt lat="44.48679" lon="4.99149">
        <ele>568.113</ele>
        <time>2022-01-29T14:45:37Z</time>
      </trkpt>
      <trkpt lat="44.48646" lon="4.99172">
        <ele>574.888</ele>
        <time>2022-01-29T14:49:02Z</time>
      </trkpt>
      <trkpt lat="44.48627" lon="4.99194">
        <ele>577.039</ele>
        <time>2022-01-29T14:49:13Z</time>
      </trkpt>
      <trkpt lat="44.48617" lon="4.99213">
        <ele>580.05</ele>
        <time>2022-01-29T14:49:20Z</time>
      </trkpt>
      <trkpt lat="44.48592" lon="4.99246">
        <ele>584.436</ele>
        <time>2022-01-29T14:50:03Z</time>
      </trkpt>
      <trkpt lat="44.48571" lon="4.99263">
        <ele>584.617</ele>
        <time>2022-01-29T14:50:23Z</time>
      </trkpt>
      <trkpt lat="44.48534" lon="4.99281">
        <ele>581.007</ele>
        <time>2022-01-29T14:50:40Z</time>
      </trkpt>
      <trkpt lat="44.48512" lon="4.99302">
        <ele>580.664</ele>
        <time>2022-01-29T14:50:50Z</time>
      </trkpt>
      <trkpt lat="44.48506" lon="4.99311">
        <ele>580.991</ele>
        <time>2022-01-29T14:50:54Z</time>
      </trkpt>
      <trkpt lat="44.485" lon="4.99329">
        <ele>583.234</ele>
        <time>2022-01-29T14:51:00Z</time>
      </trkpt>
      <trkpt lat="44.48495" lon="4.99361">
        <ele>587.758</ele>
        <time>2022-01-29T14:51:24Z</time>
      </trkpt>
      <trkpt lat="44.48488" lon="4.99378">
        <ele>589.875</ele>
        <time>2022-01-29T14:51:31Z</time>
      </trkpt>
      <trkpt lat="44.48457" lon="4.99348">
        <ele>579.059</ele>
        <time>2022-01-29T14:51:57Z</time>
      </trkpt>
      <trkpt lat="44.48423" lon="4.99331">
        <ele>577.463</ele>
        <time>2022-01-29T14:52:04Z</time>
      </trkpt>
      <trkpt lat="44.48403" lon="4.99324">
        <ele>577.807</ele>
        <time>2022-01-29T14:52:07Z</time>
      </trkpt>
      <trkpt lat="44.48375" lon="4.9932">
        <ele>580.046</ele>
        <time>2022-01-29T14:52:14Z</time>
      </trkpt>
      <trkpt lat="44.4833" lon="4.99297">
        <ele>574.4</ele>
        <time>2022-01-29T14:52:31Z</time>
      </trkpt>
      <trkpt lat="44.48305" lon="4.99277">
        <ele>568.851</ele>
        <time>2022-01-29T14:52:39Z</time>
      </trkpt>
      <trkpt lat="44.48239" lon="4.99249">
        <ele>569.699</ele>
        <time>2022-01-29T14:52:52Z</time>
      </trkpt>
      <trkpt lat="44.48207" lon="4.99238">
        <ele>571.397</ele>
        <time>2022-01-29T14:53:00Z</time>
      </trkpt>
      <trkpt lat="44.48172" lon="4.99217">
        <ele>566.617</ele>
        <time>2022-01-29T14:53:16Z</time>
      </trkpt>
      <trkpt lat="44.48133" lon="4.99214">
        <ele>568.81</ele>
        <time>2022-01-29T14:53:25Z</time>
      </trkpt>
      <trkpt lat="44.48082" lon="4.99205">
        <ele>567.852</ele>
        <time>2022-01-29T14:53:50Z</time>
      </trkpt>
      <trkpt lat="44.48026" lon="4.99191">
        <ele>566.561</ele>
        <time>2022-01-29T14:54:06Z</time>
      </trkpt>
      <trkpt lat="44.48" lon="4.99188">
        <ele>565.705</ele>
        <time>2022-01-29T14:54:13Z</time>
      </trkpt>
      <trkpt lat="44.47992" lon="4.99164">
        <ele>558.244</ele>
        <time>2022-01-29T14:54:52Z</time>
      </trkpt>
      <trkpt lat="44.47979" lon="4.99159">
        <ele>556.458</ele>
        <time>2022-01-29T14:54:59Z</time>
      </trkpt>
      <trkpt lat="44.47939" lon="4.99156">
        <ele>553.112</ele>
        <time>2022-01-29T14:55:31Z</time>
      </trkpt>
      <trkpt lat="44.47874" lon="4.99158">
        <ele>549.026</ele>
        <time>2022-01-29T14:55:53Z</time>
      </trkpt>
      <trkpt lat="44.47855" lon="4.99163">
        <ele>549.139</ele>
        <time>2022-01-29T14:56:00Z</time>
      </trkpt>
      <trkpt lat="44.47833" lon="4.99163">
        <ele>547.278</ele>
        <time>2022-01-29T14:56:11Z</time>
      </trkpt>
      <trkpt lat="44.47805" lon="4.99176">
        <ele>549.581</ele>
        <time>2022-01-29T14:56:35Z</time>
      </trkpt>
      <trkpt lat="44.47779" lon="4.99176">
        <ele>548.198</ele>
        <time>2022-01-29T14:56:43Z</time>
      </trkpt>
      <trkpt lat="44.47768" lon="4.99179">
        <ele>548.695</ele>
        <time>2022-01-29T14:56:48Z</time>
      </trkpt>
      <trkpt lat="44.47732" lon="4.99178">
        <ele>547.369</ele>
        <time>2022-01-29T14:57:01Z</time>
      </trkpt>
      <trkpt lat="44.47716" lon="4.99174">
        <ele>546.118</ele>
        <time>2022-01-29T14:57:06Z</time>
      </trkpt>
      <trkpt lat="44.47683" lon="4.99173">
        <ele>544.64</ele>
        <time>2022-01-29T14:57:15Z</time>
      </trkpt>
      <trkpt lat="44.47673" lon="4.99176">
        <ele>544.595</ele>
        <time>2022-01-29T14:57:18Z</time>
      </trkpt>
      <trkpt lat="44.47605" lon="4.99148">
        <ele>536.44</ele>
        <time>2022-01-29T14:57:37Z</time>
      </trkpt>
      <trkpt lat="44.47584" lon="4.99131">
        <ele>532.515</ele>
        <time>2022-01-29T14:57:44Z</time>
      </trkpt>
      <trkpt lat="44.47548" lon="4.99122">
        <ele>530.149</ele>
        <time>2022-01-29T14:57:53Z</time>
      </trkpt>
      <trkpt lat="44.47503" lon="4.99083">
        <ele>523.366</ele>
        <time>2022-01-29T14:58:08Z</time>
      </trkpt>
      <trkpt lat="44.47472" lon="4.99047">
        <ele>517.438</ele>
        <time>2022-01-29T14:58:21Z</time>
      </trkpt>
      <trkpt lat="44.47461" lon="4.99027">
        <ele>515.017</ele>
        <time>2022-01-29T14:58:26Z</time>
      </trkpt>
      <trkpt lat="44.47443" lon="4.99003">
        <ele>510.848</ele>
        <time>2022-01-29T14:58:33Z</time>
      </trkpt>
      <trkpt lat="44.47421" lon="4.98989">
        <ele>508.161</ele>
        <time>2022-01-29T14:58:40Z</time>
      </trkpt>
      <trkpt lat="44.47395" lon="4.98952">
        <ele>502.771</ele>
        <time>2022-01-29T14:58:51Z</time>
      </trkpt>
      <trkpt lat="44.47378" lon="4.98937">
        <ele>499.454</ele>
        <time>2022-01-29T14:58:56Z</time>
      </trkpt>
      <trkpt lat="44.47358" lon="4.98912">
        <ele>496.541</ele>
        <time>2022-01-29T14:59:04Z</time>
      </trkpt>
      <trkpt lat="44.47314" lon="4.98875">
        <ele>491.536</ele>
        <time>2022-01-29T14:59:17Z</time>
      </trkpt>
      <trkpt lat="44.47289" lon="4.98836">
        <ele>486.47</ele>
        <time>2022-01-29T14:59:28Z</time>
      </trkpt>
      <trkpt lat="44.47282" lon="4.98834">
        <ele>486.428</ele>
        <time>2022-01-29T14:59:36Z</time>
      </trkpt>
      <trkpt lat="44.47271" lon="4.9882">
        <ele>483.16</ele>
        <time>2022-01-29T14:59:41Z</time>
      </trkpt>
      <trkpt lat="44.4725" lon="4.98811">
        <ele>480.03</ele>
        <time>2022-01-29T14:59:49Z</time>
      </trkpt>
      <trkpt lat="44.47202" lon="4.98777">
        <ele>471.964</ele>
        <time>2022-01-29T15:00:05Z</time>
      </trkpt>
      <trkpt lat="44.4718" lon="4.98771">
        <ele>471.024</ele>
        <time>2022-01-29T15:00:13Z</time>
      </trkpt>
      <trkpt lat="44.47156" lon="4.98754">
        <ele>465.09</ele>
        <time>2022-01-29T15:00:21Z</time>
      </trkpt>
      <trkpt lat="44.47113" lon="4.98737">
        <ele>458.25</ele>
        <time>2022-01-29T15:00:31Z</time>
      </trkpt>
      <trkpt lat="44.47111" lon="4.98733">
        <ele>457.822</ele>
        <time>2022-01-29T15:00:34Z</time>
      </trkpt>
      <trkpt lat="44.47051" lon="4.98689">
        <ele>451.374</ele>
        <time>2022-01-29T15:00:53Z</time>
      </trkpt>
      <trkpt lat="44.47035" lon="4.98685">
        <ele>448.702</ele>
        <time>2022-01-29T15:00:58Z</time>
      </trkpt>
      <trkpt lat="44.47031" lon="4.9868">
        <ele>446.918</ele>
        <time>2022-01-29T15:01:00Z</time>
      </trkpt>
      <trkpt lat="44.47028" lon="4.98666">
        <ele>444.178</ele>
        <time>2022-01-29T15:01:05Z</time>
      </trkpt>
      <trkpt lat="44.47015" lon="4.98646">
        <ele>441.941</ele>
        <time>2022-01-29T15:01:35Z</time>
      </trkpt>
      <trkpt lat="44.47009" lon="4.98643">
        <ele>442.288</ele>
        <time>2022-01-29T15:01:38Z</time>
      </trkpt>
      <trkpt lat="44.47003" lon="4.98648">
        <ele>442.74</ele>
        <time>2022-01-29T15:01:43Z</time>
      </trkpt>
      <trkpt lat="44.46993" lon="4.98634">
        <ele>443.378</ele>
        <time>2022-01-29T15:01:51Z</time>
      </trkpt>
      <trkpt lat="44.4698" lon="4.98626">
        <ele>440.353</ele>
        <time>2022-01-29T15:01:56Z</time>
      </trkpt>
      <trkpt lat="44.46974" lon="4.98614">
        <ele>437.823</ele>
        <time>2022-01-29T15:02:00Z</time>
      </trkpt>
      <trkpt lat="44.46969" lon="4.98609">
        <ele>437.215</ele>
        <time>2022-01-29T15:02:03Z</time>
      </trkpt>
      <trkpt lat="44.4696" lon="4.98593">
        <ele>436.341</ele>
        <time>2022-01-29T15:02:07Z</time>
      </trkpt>
      <trkpt lat="44.46941" lon="4.9857">
        <ele>434.89</ele>
        <time>2022-01-29T15:02:13Z</time>
      </trkpt>
      <trkpt lat="44.46915" lon="4.98515">
        <ele>425.621</ele>
        <time>2022-01-29T15:02:26Z</time>
      </trkpt>
      <trkpt lat="44.46903" lon="4.98501">
        <ele>423.376</ele>
        <time>2022-01-29T15:02:32Z</time>
      </trkpt>
      <trkpt lat="44.46898" lon="4.98489">
        <ele>418.263</ele>
        <time>2022-01-29T15:02:36Z</time>
      </trkpt>
      <trkpt lat="44.46898" lon="4.98478">
        <ele>414.709</ele>
        <time>2022-01-29T15:02:41Z</time>
      </trkpt>
      <trkpt lat="44.46885" lon="4.98458">
        <ele>409.228</ele>
        <time>2022-01-29T15:02:48Z</time>
      </trkpt>
      <trkpt lat="44.46869" lon="4.98424">
        <ele>404.867</ele>
        <time>2022-01-29T15:02:59Z</time>
      </trkpt>
      <trkpt lat="44.46863" lon="4.98421">
        <ele>403.665</ele>
        <time>2022-01-29T15:03:03Z</time>
      </trkpt>
      <trkpt lat="44.46858" lon="4.98407">
        <ele>400.029</ele>
        <time>2022-01-29T15:03:10Z</time>
      </trkpt>
      <trkpt lat="44.46852" lon="4.98401">
        <ele>398.338</ele>
        <time>2022-01-29T15:03:14Z</time>
      </trkpt>
      <trkpt lat="44.46842" lon="4.98397">
        <ele>397.045</ele>
        <time>2022-01-29T15:03:20Z</time>
      </trkpt>
      <trkpt lat="44.46839" lon="4.98386">
        <ele>395.855</ele>
        <time>2022-01-29T15:03:24Z</time>
      </trkpt>
      <trkpt lat="44.46833" lon="4.98376">
        <ele>395.423</ele>
        <time>2022-01-29T15:03:29Z</time>
      </trkpt>
      <trkpt lat="44.46828" lon="4.98374">
        <ele>395.698</ele>
        <time>2022-01-29T15:03:32Z</time>
      </trkpt>
      <trkpt lat="44.46811" lon="4.98357">
        <ele>390.309</ele>
        <time>2022-01-29T15:03:41Z</time>
      </trkpt>
      <trkpt lat="44.46802" lon="4.98334">
        <ele>385.699</ele>
        <time>2022-01-29T15:03:47Z</time>
      </trkpt>
      <trkpt lat="44.46786" lon="4.98316">
        <ele>383.994</ele>
        <time>2022-01-29T15:03:52Z</time>
      </trkpt>
      <trkpt lat="44.46753" lon="4.98291">
        <ele>381.074</ele>
        <time>2022-01-29T15:04:04Z</time>
      </trkpt>
      <trkpt lat="44.46732" lon="4.98262">
        <ele>380.107</ele>
        <time>2022-01-29T15:04:14Z</time>
      </trkpt>
      <trkpt lat="44.46727" lon="4.98242">
        <ele>379.978</ele>
        <time>2022-01-29T15:04:20Z</time>
      </trkpt>
      <trkpt lat="44.46703" lon="4.98194">
        <ele>381.413</ele>
        <time>2022-01-29T15:05:11Z</time>
      </trkpt>
      <trkpt lat="44.46681" lon="4.98178">
        <ele>383.232</ele>
        <time>2022-01-29T15:05:49Z</time>
      </trkpt>
      <trkpt lat="44.46665" lon="4.98162">
        <ele>381.536</ele>
        <time>2022-01-29T15:05:55Z</time>
      </trkpt>
      <trkpt lat="44.4665" lon="4.98163">
        <ele>382.027</ele>
        <time>2022-01-29T15:06:01Z</time>
      </trkpt>
      <trkpt lat="44.46626" lon="4.98153">
        <ele>382.11</ele>
        <time>2022-01-29T15:06:11Z</time>
      </trkpt>
      <trkpt lat="44.46604" lon="4.98153">
        <ele>383.587</ele>
        <time>2022-01-29T15:06:19Z</time>
      </trkpt>
      <trkpt lat="44.46589" lon="4.98163">
        <ele>384.013</ele>
        <time>2022-01-29T15:06:26Z</time>
      </trkpt>
      <trkpt lat="44.46579" lon="4.98162">
        <ele>383.08</ele>
        <time>2022-01-29T15:06:29Z</time>
      </trkpt>
      <trkpt lat="44.46564" lon="4.98172">
        <ele>383.431</ele>
        <time>2022-01-29T15:06:35Z</time>
      </trkpt>
      <trkpt lat="44.46551" lon="4.98177">
        <ele>381.033</ele>
        <time>2022-01-29T15:06:40Z</time>
      </trkpt>
      <trkpt lat="44.46538" lon="4.98189">
        <ele>377.289</ele>
        <time>2022-01-29T15:06:46Z</time>
      </trkpt>
      <trkpt lat="44.46528" lon="4.98193">
        <ele>375.668</ele>
        <time>2022-01-29T15:06:49Z</time>
      </trkpt>
      <trkpt lat="44.46511" lon="4.98192">
        <ele>374.118</ele>
        <time>2022-01-29T15:06:54Z</time>
      </trkpt>
      <trkpt lat="44.46491" lon="4.982">
        <ele>372.176</ele>
        <time>2022-01-29T15:06:59Z</time>
      </trkpt>
      <trkpt lat="44.46483" lon="4.98217">
        <ele>370.548</ele>
        <time>2022-01-29T15:07:05Z</time>
      </trkpt>
      <trkpt lat="44.46466" lon="4.98231">
        <ele>368.909</ele>
        <time>2022-01-29T15:07:11Z</time>
      </trkpt>
      <trkpt lat="44.46459" lon="4.98232">
        <ele>368.012</ele>
        <time>2022-01-29T15:07:13Z</time>
      </trkpt>
      <trkpt lat="44.46451" lon="4.98226">
        <ele>367.117</ele>
        <time>2022-01-29T15:07:16Z</time>
      </trkpt>
      <trkpt lat="44.46364" lon="4.98215">
        <ele>360.772</ele>
        <time>2022-01-29T15:07:38Z</time>
      </trkpt>
      <trkpt lat="44.46352" lon="4.98206">
        <ele>360.485</ele>
        <time>2022-01-29T15:07:43Z</time>
      </trkpt>
      <trkpt lat="44.4633" lon="4.98204">
        <ele>359.555</ele>
        <time>2022-01-29T15:07:48Z</time>
      </trkpt>
      <trkpt lat="44.46321" lon="4.9821">
        <ele>358.983</ele>
        <time>2022-01-29T15:07:51Z</time>
      </trkpt>
      <trkpt lat="44.46312" lon="4.98211">
        <ele>358.505</ele>
        <time>2022-01-29T15:07:55Z</time>
      </trkpt>
      <trkpt lat="44.46309" lon="4.98214">
        <ele>358.265</ele>
        <time>2022-01-29T15:07:58Z</time>
      </trkpt>
      <trkpt lat="44.46309" lon="4.98251">
        <ele>358.01</ele>
        <time>2022-01-29T15:08:27Z</time>
      </trkpt>
      <trkpt lat="44.46298" lon="4.9831">
        <ele>359.595</ele>
        <time>2022-01-29T15:08:48Z</time>
      </trkpt>
      <trkpt lat="44.46289" lon="4.98323">
        <ele>360.305</ele>
        <time>2022-01-29T15:08:53Z</time>
      </trkpt>
      <trkpt lat="44.46274" lon="4.98335">
        <ele>360.497</ele>
        <time>2022-01-29T15:09:03Z</time>
      </trkpt>
      <trkpt lat="44.4622" lon="4.98344">
        <ele>358.701</ele>
        <time>2022-01-29T15:09:17Z</time>
      </trkpt>
      <trkpt lat="44.46204" lon="4.98356">
        <ele>358.332</ele>
        <time>2022-01-29T15:09:23Z</time>
      </trkpt>
      <trkpt lat="44.46176" lon="4.98395">
        <ele>357.997</ele>
        <time>2022-01-29T15:09:35Z</time>
      </trkpt>
      <trkpt lat="44.46173" lon="4.98402">
        <ele>358.099</ele>
        <time>2022-01-29T15:09:37Z</time>
      </trkpt>
      <trkpt lat="44.46172" lon="4.98414">
        <ele>358.22</ele>
        <time>2022-01-29T15:09:40Z</time>
      </trkpt>
      <trkpt lat="44.46189" lon="4.98457">
        <ele>359.82</ele>
        <time>2022-01-29T15:09:49Z</time>
      </trkpt>
      <trkpt lat="44.462" lon="4.98477">
        <ele>361.121</ele>
        <time>2022-01-29T15:09:53Z</time>
      </trkpt>
      <trkpt lat="44.46202" lon="4.98487">
        <ele>361.395</ele>
        <time>2022-01-29T15:09:55Z</time>
      </trkpt>
      <trkpt lat="44.462" lon="4.98496">
        <ele>361.321</ele>
        <time>2022-01-29T15:09:57Z</time>
      </trkpt>
      <trkpt lat="44.4618" lon="4.9853">
        <ele>360.746</ele>
        <time>2022-01-29T15:10:08Z</time>
      </trkpt>
      <trkpt lat="44.46169" lon="4.98582">
        <ele>365.662</ele>
        <time>2022-01-29T15:10:22Z</time>
      </trkpt>
      <trkpt lat="44.4617" lon="4.98606">
        <ele>366.835</ele>
        <time>2022-01-29T15:10:29Z</time>
      </trkpt>
      <trkpt lat="44.4618" lon="4.98636">
        <ele>367.629</ele>
        <time>2022-01-29T15:10:37Z</time>
      </trkpt>
      <trkpt lat="44.46176" lon="4.98651">
        <ele>366.895</ele>
        <time>2022-01-29T15:10:42Z</time>
      </trkpt>
      <trkpt lat="44.46176" lon="4.98685">
        <ele>368.675</ele>
        <time>2022-01-29T15:10:51Z</time>
      </trkpt>
      <trkpt lat="44.46171" lon="4.98738">
        <ele>372.891</ele>
        <time>2022-01-29T15:11:05Z</time>
      </trkpt>
      <trkpt lat="44.46157" lon="4.98827">
        <ele>381.429</ele>
        <time>2022-01-29T15:11:29Z</time>
      </trkpt>
      <trkpt lat="44.46152" lon="4.98841">
        <ele>382.402</ele>
        <time>2022-01-29T15:11:34Z</time>
      </trkpt>
      <trkpt lat="44.46136" lon="4.98868">
        <ele>382.808</ele>
        <time>2022-01-29T15:11:42Z</time>
      </trkpt>
      <trkpt lat="44.46127" lon="4.98896">
        <ele>383.275</ele>
        <time>2022-01-29T15:11:48Z</time>
      </trkpt>
      <trkpt lat="44.46118" lon="4.98948">
        <ele>382.085</ele>
        <time>2022-01-29T15:12:01Z</time>
      </trkpt>
      <trkpt lat="44.46113" lon="4.98957">
        <ele>381.444</ele>
        <time>2022-01-29T15:12:03Z</time>
      </trkpt>
      <trkpt lat="44.46091" lon="4.98968">
        <ele>379.097</ele>
        <time>2022-01-29T15:12:09Z</time>
      </trkpt>
      <trkpt lat="44.46074" lon="4.98964">
        <ele>377.4</ele>
        <time>2022-01-29T15:12:15Z</time>
      </trkpt>
      <trkpt lat="44.46047" lon="4.98952">
        <ele>374.782</ele>
        <time>2022-01-29T15:12:25Z</time>
      </trkpt>
      <trkpt lat="44.46007" lon="4.9894">
        <ele>369.81</ele>
        <time>2022-01-29T15:12:36Z</time>
      </trkpt>
      <trkpt lat="44.4595" lon="4.98929">
        <ele>362.925</ele>
        <time>2022-01-29T15:12:50Z</time>
      </trkpt>
      <trkpt lat="44.45922" lon="4.98921">
        <ele>360.106</ele>
        <time>2022-01-29T15:12:56Z</time>
      </trkpt>
      <trkpt lat="44.45872" lon="4.98913">
        <ele>355.07</ele>
        <time>2022-01-29T15:13:06Z</time>
      </trkpt>
      <trkpt lat="44.4583" lon="4.98896">
        <ele>351.169</ele>
        <time>2022-01-29T15:13:13Z</time>
      </trkpt>
      <trkpt lat="44.45796" lon="4.98879">
        <ele>349.879</ele>
        <time>2022-01-29T15:13:21Z</time>
      </trkpt>
      <trkpt lat="44.45774" lon="4.98877">
        <ele>349.748</ele>
        <time>2022-01-29T15:13:27Z</time>
      </trkpt>
      <trkpt lat="44.45729" lon="4.98851">
        <ele>348.799</ele>
        <time>2022-01-29T15:13:39Z</time>
      </trkpt>
      <trkpt lat="44.45712" lon="4.98838">
        <ele>347.596</ele>
        <time>2022-01-29T15:13:44Z</time>
      </trkpt>
      <trkpt lat="44.45664" lon="4.98811">
        <ele>347.205</ele>
        <time>2022-01-29T15:13:56Z</time>
      </trkpt>
      <trkpt lat="44.45653" lon="4.98802">
        <ele>347.025</ele>
        <time>2022-01-29T15:13:59Z</time>
      </trkpt>
      <trkpt lat="44.45623" lon="4.98767">
        <ele>348.242</ele>
        <time>2022-01-29T15:14:08Z</time>
      </trkpt>
      <trkpt lat="44.45613" lon="4.98762">
        <ele>350.142</ele>
        <time>2022-01-29T15:14:11Z</time>
      </trkpt>
      <trkpt lat="44.45575" lon="4.98759">
        <ele>354.673</ele>
        <time>2022-01-29T15:14:21Z</time>
      </trkpt>
      <trkpt lat="44.45552" lon="4.98762">
        <ele>356.129</ele>
        <time>2022-01-29T15:14:28Z</time>
      </trkpt>
      <trkpt lat="44.45517" lon="4.98752">
        <ele>357.815</ele>
        <time>2022-01-29T15:14:38Z</time>
      </trkpt>
      <trkpt lat="44.45493" lon="4.98739">
        <ele>357.892</ele>
        <time>2022-01-29T15:14:47Z</time>
      </trkpt>
      <trkpt lat="44.45482" lon="4.98727">
        <ele>357.473</ele>
        <time>2022-01-29T15:14:51Z</time>
      </trkpt>
      <trkpt lat="44.4547" lon="4.98719">
        <ele>356.45</ele>
        <time>2022-01-29T15:15:19Z</time>
      </trkpt>
      <trkpt lat="44.45412" lon="4.98704">
        <ele>350.398</ele>
        <time>2022-01-29T15:15:36Z</time>
      </trkpt>
      <trkpt lat="44.45396" lon="4.98703">
        <ele>348.633</ele>
        <time>2022-01-29T15:15:41Z</time>
      </trkpt>
      <trkpt lat="44.45382" lon="4.98706">
        <ele>347.281</ele>
        <time>2022-01-29T15:15:46Z</time>
      </trkpt>
      <trkpt lat="44.45359" lon="4.987">
        <ele>344.93</ele>
        <time>2022-01-29T15:15:54Z</time>
      </trkpt>
      <trkpt lat="44.45281" lon="4.98661">
        <ele>337.356</ele>
        <time>2022-01-29T15:16:22Z</time>
      </trkpt>
      <trkpt lat="44.45246" lon="4.9865">
        <ele>334.883</ele>
        <time>2022-01-29T15:16:36Z</time>
      </trkpt>
      <trkpt lat="44.45234" lon="4.9865">
        <ele>333.697</ele>
        <time>2022-01-29T15:16:41Z</time>
      </trkpt>
      <trkpt lat="44.45205" lon="4.98632">
        <ele>329.432</ele>
        <time>2022-01-29T15:16:54Z</time>
      </trkpt>
      <trkpt lat="44.45143" lon="4.9863">
        <ele>324.045</ele>
        <time>2022-01-29T15:17:18Z</time>
      </trkpt>
      <trkpt lat="44.45134" lon="4.98627">
        <ele>323.147</ele>
        <time>2022-01-29T15:17:21Z</time>
      </trkpt>
      <trkpt lat="44.45118" lon="4.98627">
        <ele>322.052</ele>
        <time>2022-01-29T15:17:26Z</time>
      </trkpt>
      <trkpt lat="44.45063" lon="4.9861">
        <ele>317.283</ele>
        <time>2022-01-29T15:18:02Z</time>
      </trkpt>
      <trkpt lat="44.45035" lon="4.98597">
        <ele>314.196</ele>
        <time>2022-01-29T15:18:12Z</time>
      </trkpt>
      <trkpt lat="44.45009" lon="4.98574">
        <ele>311.275</ele>
        <time>2022-01-29T15:18:25Z</time>
      </trkpt>
      <trkpt lat="44.44988" lon="4.98564">
        <ele>309.1</ele>
        <time>2022-01-29T15:18:32Z</time>
      </trkpt>
      <trkpt lat="44.44972" lon="4.9855">
        <ele>307.288</ele>
        <time>2022-01-29T15:18:37Z</time>
      </trkpt>
      <trkpt lat="44.44956" lon="4.98544">
        <ele>306.015</ele>
        <time>2022-01-29T15:18:40Z</time>
      </trkpt>
      <trkpt lat="44.44904" lon="4.98534">
        <ele>302.309</ele>
        <time>2022-01-29T15:18:49Z</time>
      </trkpt>
      <trkpt lat="44.44795" lon="4.9846">
        <ele>294.945</ele>
        <time>2022-01-29T15:19:05Z</time>
      </trkpt>
      <trkpt lat="44.44732" lon="4.98422">
        <ele>292.095</ele>
        <time>2022-01-29T15:19:14Z</time>
      </trkpt>
      <trkpt lat="44.44725" lon="4.98416">
        <ele>291.775</ele>
        <time>2022-01-29T15:19:16Z</time>
      </trkpt>
      <trkpt lat="44.44721" lon="4.98406">
        <ele>291.58</ele>
        <time>2022-01-29T15:19:18Z</time>
      </trkpt>
      <trkpt lat="44.44726" lon="4.98384">
        <ele>291.531</ele>
        <time>2022-01-29T15:19:23Z</time>
      </trkpt>
      <trkpt lat="44.44738" lon="4.98298">
        <ele>291.24</ele>
        <time>2022-01-29T15:19:38Z</time>
      </trkpt>
      <trkpt lat="44.44761" lon="4.98092">
        <ele>290.975</ele>
        <time>2022-01-29T15:20:09Z</time>
      </trkpt>
      <trkpt lat="44.44761" lon="4.98065">
        <ele>291.02</ele>
        <time>2022-01-29T15:20:16Z</time>
      </trkpt>
      <trkpt lat="44.44764" lon="4.98055">
        <ele>291.12</ele>
        <time>2022-01-29T15:20:20Z</time>
      </trkpt>
      <trkpt lat="44.44742" lon="4.98047">
        <ele>290.16</ele>
        <time>2022-01-29T15:20:28Z</time>
      </trkpt>
      <trkpt lat="44.44667" lon="4.98053">
        <ele>287.3</ele>
        <time>2022-01-29T15:20:45Z</time>
      </trkpt>
      <trkpt lat="44.44667" lon="4.98046">
        <ele>287.404</ele>
        <time>2022-01-29T15:20:48Z</time>
      </trkpt>
      <trkpt lat="44.44675" lon="4.98042">
        <ele>287.773</ele>
        <time>2022-01-29T15:20:51Z</time>
      </trkpt>
      <trkpt lat="44.44682" lon="4.98034">
        <ele>288.078</ele>
        <time>2022-01-29T15:20:55Z</time>
      </trkpt>
      <trkpt lat="44.44689" lon="4.98016">
        <ele>288.367</ele>
        <time>2022-01-29T15:21:00Z</time>
      </trkpt>
      <trkpt lat="44.44693" lon="4.97987">
        <ele>288.46</ele>
        <time>2022-01-29T15:21:06Z</time>
      </trkpt>
      <trkpt lat="44.44701" lon="4.97958">
        <ele>288.642</ele>
        <time>2022-01-29T15:21:12Z</time>
      </trkpt>
      <trkpt lat="44.447" lon="4.97941">
        <ele>288.891</ele>
        <time>2022-01-29T15:21:18Z</time>
      </trkpt>
      <trkpt lat="44.44686" lon="4.97952">
        <ele>288.39</ele>
        <time>2022-01-29T15:21:27Z</time>
      </trkpt>
      <trkpt lat="44.447" lon="4.97938">
        <ele>288.911</ele>
        <time>2022-01-29T15:21:39Z</time>
      </trkpt>
      <trkpt lat="44.44702" lon="4.97932">
        <ele>289.068</ele>
        <time>2022-01-29T15:21:42Z</time>
      </trkpt>
      <trkpt lat="44.44698" lon="4.97929">
        <ele>289.017</ele>
        <time>2022-01-29T15:21:44Z</time>
      </trkpt>
      <trkpt lat="44.44677" lon="4.97926">
        <ele>288.574</ele>
        <time>2022-01-29T15:21:51Z</time>
      </trkpt>
      <trkpt lat="44.44653" lon="4.97929">
        <ele>287.496</ele>
        <time>2022-01-29T15:21:56Z</time>
      </trkpt>
      <trkpt lat="44.44585" lon="4.9792">
        <ele>283.554</ele>
        <time>2022-01-29T15:22:08Z</time>
      </trkpt>
      <trkpt lat="44.44582" lon="4.97916">
        <ele>283.431</ele>
        <time>2022-01-29T15:22:10Z</time>
      </trkpt>
      <trkpt lat="44.44592" lon="4.978">
        <ele>285.753</ele>
        <time>2022-01-29T15:22:39Z</time>
      </trkpt>
      <trkpt lat="44.44603" lon="4.97697">
        <ele>287.863</ele>
        <time>2022-01-29T15:23:01Z</time>
      </trkpt>
      <trkpt lat="44.44614" lon="4.97543">
        <ele>290.763</ele>
        <time>2022-01-29T15:24:02Z</time>
      </trkpt>
      <trkpt lat="44.44629" lon="4.97396">
        <ele>285.277</ele>
        <time>2022-01-29T15:24:15Z</time>
      </trkpt>
      <trkpt lat="44.44641" lon="4.97329">
        <ele>282.835</ele>
        <time>2022-01-29T15:24:24Z</time>
      </trkpt>
      <trkpt lat="44.44641" lon="4.97276">
        <ele>282.655</ele>
        <time>2022-01-29T15:24:33Z</time>
      </trkpt>
      <trkpt lat="44.44638" lon="4.97237">
        <ele>281.33</ele>
        <time>2022-01-29T15:24:39Z</time>
      </trkpt>
      <trkpt lat="44.44622" lon="4.97175">
        <ele>278.093</ele>
        <time>2022-01-29T15:24:48Z</time>
      </trkpt>
      <trkpt lat="44.44621" lon="4.9708">
        <ele>277.682</ele>
        <time>2022-01-29T15:25:02Z</time>
      </trkpt>
      <trkpt lat="44.44618" lon="4.97073">
        <ele>277.649</ele>
        <time>2022-01-29T15:25:04Z</time>
      </trkpt>
      <trkpt lat="44.44615" lon="4.97072">
        <ele>277.523</ele>
        <time>2022-01-29T15:25:05Z</time>
      </trkpt>
      <trkpt lat="44.44594" lon="4.97102">
        <ele>275.975</ele>
        <time>2022-01-29T15:25:14Z</time>
      </trkpt>
      <trkpt lat="44.44546" lon="4.97191">
        <ele>274.372</ele>
        <time>2022-01-29T15:25:30Z</time>
      </trkpt>
      <trkpt lat="44.44515" lon="4.97236">
        <ele>273.857</ele>
        <time>2022-01-29T15:25:39Z</time>
      </trkpt>
      <trkpt lat="44.44462" lon="4.97302">
        <ele>271.477</ele>
        <time>2022-01-29T15:25:51Z</time>
      </trkpt>
      <trkpt lat="44.44433" lon="4.97334">
        <ele>269.659</ele>
        <time>2022-01-29T15:25:57Z</time>
      </trkpt>
      <trkpt lat="44.44412" lon="4.97367">
        <ele>269.035</ele>
        <time>2022-01-29T15:26:03Z</time>
      </trkpt>
      <trkpt lat="44.44408" lon="4.97369">
        <ele>268.78</ele>
        <time>2022-01-29T15:26:05Z</time>
      </trkpt>
      <trkpt lat="44.44385" lon="4.97364">
        <ele>266.587</ele>
        <time>2022-01-29T15:26:29Z</time>
      </trkpt>
      <trkpt lat="44.44378" lon="4.97356">
        <ele>265.655</ele>
        <time>2022-01-29T15:26:31Z</time>
      </trkpt>
      <trkpt lat="44.44375" lon="4.97344">
        <ele>265.008</ele>
        <time>2022-01-29T15:26:33Z</time>
      </trkpt>
      <trkpt lat="44.44375" lon="4.97278">
        <ele>263.434</ele>
        <time>2022-01-29T15:26:48Z</time>
      </trkpt>
      <trkpt lat="44.44348" lon="4.9727">
        <ele>262.085</ele>
        <time>2022-01-29T15:27:17Z</time>
      </trkpt>
      <trkpt lat="44.44289" lon="4.97261">
        <ele>259.196</ele>
        <time>2022-01-29T15:27:30Z</time>
      </trkpt>
      <trkpt lat="44.44221" lon="4.97254">
        <ele>255.19</ele>
        <time>2022-01-29T15:27:44Z</time>
      </trkpt>
      <trkpt lat="44.44171" lon="4.97253">
        <ele>254.136</ele>
        <time>2022-01-29T15:27:53Z</time>
      </trkpt>
      <trkpt lat="44.44129" lon="4.97245">
        <ele>255</ele>
        <time>2022-01-29T15:28:01Z</time>
      </trkpt>
      <trkpt lat="44.44083" lon="4.9723">
        <ele>257.045</ele>
        <time>2022-01-29T15:28:11Z</time>
      </trkpt>
      <trkpt lat="44.44059" lon="4.97229">
        <ele>258.202</ele>
        <time>2022-01-29T15:28:17Z</time>
      </trkpt>
      <trkpt lat="44.44004" lon="4.97237">
        <ele>263.424</ele>
        <time>2022-01-29T15:28:35Z</time>
      </trkpt>
      <trkpt lat="44.44021" lon="4.97276">
        <ele>263.258</ele>
        <time>2022-01-29T15:28:52Z</time>
      </trkpt>
      <trkpt lat="44.44031" lon="4.97284">
        <ele>262.462</ele>
        <time>2022-01-29T15:28:57Z</time>
      </trkpt>
      <trkpt lat="44.44063" lon="4.97327">
        <ele>261.244</ele>
        <time>2022-01-29T15:29:09Z</time>
      </trkpt>
      <trkpt lat="44.44088" lon="4.97368">
        <ele>260.718</ele>
        <time>2022-01-29T15:29:19Z</time>
      </trkpt>
      <trkpt lat="44.44114" lon="4.97429">
        <ele>260.423</ele>
        <time>2022-01-29T15:29:34Z</time>
      </trkpt>
      <trkpt lat="44.44134" lon="4.97467">
        <ele>260.203</ele>
        <time>2022-01-29T15:29:41Z</time>
      </trkpt>
      <trkpt lat="44.44234" lon="4.97627">
        <ele>260.239</ele>
        <time>2022-01-29T15:30:11Z</time>
      </trkpt>
      <trkpt lat="44.44235" lon="4.97634">
        <ele>260.505</ele>
        <time>2022-01-29T15:30:13Z</time>
      </trkpt>
      <trkpt lat="44.44233" lon="4.97644">
        <ele>260.501</ele>
        <time>2022-01-29T15:30:16Z</time>
      </trkpt>
      <trkpt lat="44.44175" lon="4.97746">
        <ele>259.01</ele>
        <time>2022-01-29T15:30:36Z</time>
      </trkpt>
      <trkpt lat="44.44151" lon="4.97784">
        <ele>258.131</ele>
        <time>2022-01-29T15:30:44Z</time>
      </trkpt>
      <trkpt lat="44.44133" lon="4.97822">
        <ele>256.92</ele>
        <time>2022-01-29T15:30:52Z</time>
      </trkpt>
      <trkpt lat="44.44133" lon="4.97835">
        <ele>256.913</ele>
        <time>2022-01-29T15:30:54Z</time>
      </trkpt>
      <trkpt lat="44.44136" lon="4.97844">
        <ele>256.995</ele>
        <time>2022-01-29T15:30:56Z</time>
      </trkpt>
      <trkpt lat="44.44251" lon="4.97972">
        <ele>267.612</ele>
        <time>2022-01-29T15:31:37Z</time>
      </trkpt>
      <trkpt lat="44.44263" lon="4.97975">
        <ele>268.42</ele>
        <time>2022-01-29T15:31:43Z</time>
      </trkpt>
      <trkpt lat="44.44282" lon="4.9796">
        <ele>269.153</ele>
        <time>2022-01-29T15:31:53Z</time>
      </trkpt>
      <trkpt lat="44.44293" lon="4.97957">
        <ele>269.814</ele>
        <time>2022-01-29T15:31:57Z</time>
      </trkpt>
      <trkpt lat="44.44332" lon="4.97959">
        <ele>273.895</ele>
        <time>2022-01-29T15:32:09Z</time>
      </trkpt>
      <trkpt lat="44.44359" lon="4.97941">
        <ele>273.779</ele>
        <time>2022-01-29T15:32:20Z</time>
      </trkpt>
    </trkseg>
  </trk>
</gpx>